<?xml version="1.0" encoding="UTF-8" standalone="no" ?>
<gpx xmlns="http://www.topografix.com/GPX/1/1" xmlns:xsi="http://www.w3.org/2001/XMLSchema-instance" xsi:schemaLocation="http://www.topografix.com/GPX/1/1 http://www.topografix.com/GPX/1/1/gpx.xsd" version="1.1" creator="VisuGPX - https://www.visugpx.com">
  <metadata>
    <name>Bois de Gueurce</name>
    <desc><![CDATA[Trace AlpineQuest 09/08/2020 09:49:59]]></desc>
  </metadata>
  <trk>
    <name><![CDATA[Bois de Gueurce_1]]></name>
    <trkseg>
      <trkpt lat="46.53774" lon="4.5334">
        <ele>241.6</ele>
        <time>2020-08-09T07:49:59Z</time>
      </trkpt>
      <trkpt lat="46.53774" lon="4.53329">
        <ele>241.6</ele>
        <time>2020-08-09T07:52:03Z</time>
      </trkpt>
      <trkpt lat="46.53781" lon="4.53326">
        <ele>241.6</ele>
        <time>2020-08-09T07:52:13Z</time>
      </trkpt>
      <trkpt lat="46.53787" lon="4.53333">
        <ele>244.6</ele>
        <time>2020-08-09T07:52:22Z</time>
      </trkpt>
      <trkpt lat="46.53794" lon="4.53336">
        <ele>242.6</ele>
        <time>2020-08-09T07:52:28Z</time>
      </trkpt>
      <trkpt lat="46.53799" lon="4.53341">
        <ele>241.6</ele>
        <time>2020-08-09T07:52:35Z</time>
      </trkpt>
      <trkpt lat="46.53806" lon="4.53347">
        <ele>241.6</ele>
        <time>2020-08-09T07:52:40Z</time>
      </trkpt>
      <trkpt lat="46.53812" lon="4.53352">
        <ele>242.6</ele>
        <time>2020-08-09T07:52:45Z</time>
      </trkpt>
      <trkpt lat="46.53818" lon="4.53356">
        <ele>242.6</ele>
        <time>2020-08-09T07:52:50Z</time>
      </trkpt>
      <trkpt lat="46.53824" lon="4.53361">
        <ele>242.6</ele>
        <time>2020-08-09T07:52:55Z</time>
      </trkpt>
      <trkpt lat="46.53831" lon="4.53364">
        <ele>241.6</ele>
        <time>2020-08-09T07:53:01Z</time>
      </trkpt>
      <trkpt lat="46.53838" lon="4.53368">
        <ele>241.601</ele>
        <time>2020-08-09T07:53:06Z</time>
      </trkpt>
      <trkpt lat="46.53845" lon="4.5337">
        <ele>240.601</ele>
        <time>2020-08-09T07:53:12Z</time>
      </trkpt>
      <trkpt lat="46.53851" lon="4.53375">
        <ele>240.601</ele>
        <time>2020-08-09T07:53:17Z</time>
      </trkpt>
      <trkpt lat="46.53858" lon="4.53379">
        <ele>239.601</ele>
        <time>2020-08-09T07:53:23Z</time>
      </trkpt>
      <trkpt lat="46.53864" lon="4.53383">
        <ele>240.601</ele>
        <time>2020-08-09T07:53:29Z</time>
      </trkpt>
      <trkpt lat="46.53871" lon="4.53386">
        <ele>240.601</ele>
        <time>2020-08-09T07:53:34Z</time>
      </trkpt>
      <trkpt lat="46.53877" lon="4.5339">
        <ele>240.601</ele>
        <time>2020-08-09T07:53:40Z</time>
      </trkpt>
      <trkpt lat="46.53884" lon="4.53393">
        <ele>240.601</ele>
        <time>2020-08-09T07:53:46Z</time>
      </trkpt>
      <trkpt lat="46.53891" lon="4.53396">
        <ele>240.601</ele>
        <time>2020-08-09T07:53:52Z</time>
      </trkpt>
      <trkpt lat="46.53897" lon="4.53397">
        <ele>239.601</ele>
        <time>2020-08-09T07:53:57Z</time>
      </trkpt>
      <trkpt lat="46.53905" lon="4.53401">
        <ele>238.601</ele>
        <time>2020-08-09T07:54:03Z</time>
      </trkpt>
      <trkpt lat="46.53911" lon="4.53405">
        <ele>237.601</ele>
        <time>2020-08-09T07:54:09Z</time>
      </trkpt>
      <trkpt lat="46.53919" lon="4.53408">
        <ele>238.601</ele>
        <time>2020-08-09T07:54:16Z</time>
      </trkpt>
      <trkpt lat="46.53926" lon="4.53412">
        <ele>235.601</ele>
        <time>2020-08-09T07:54:25Z</time>
      </trkpt>
      <trkpt lat="46.53933" lon="4.53418">
        <ele>233.601</ele>
        <time>2020-08-09T07:54:33Z</time>
      </trkpt>
      <trkpt lat="46.53942" lon="4.53423">
        <ele>234.601</ele>
        <time>2020-08-09T07:54:38Z</time>
      </trkpt>
      <trkpt lat="46.53952" lon="4.53426">
        <ele>235.601</ele>
        <time>2020-08-09T07:54:43Z</time>
      </trkpt>
      <trkpt lat="46.53959" lon="4.53428">
        <ele>235.601</ele>
        <time>2020-08-09T07:54:48Z</time>
      </trkpt>
      <trkpt lat="46.53965" lon="4.53432">
        <ele>236.601</ele>
        <time>2020-08-09T07:54:53Z</time>
      </trkpt>
      <trkpt lat="46.53972" lon="4.53434">
        <ele>237.601</ele>
        <time>2020-08-09T07:54:59Z</time>
      </trkpt>
      <trkpt lat="46.53979" lon="4.53434">
        <ele>235.601</ele>
        <time>2020-08-09T07:55:04Z</time>
      </trkpt>
      <trkpt lat="46.53986" lon="4.53435">
        <ele>235.601</ele>
        <time>2020-08-09T07:55:09Z</time>
      </trkpt>
      <trkpt lat="46.53994" lon="4.53436">
        <ele>232.601</ele>
        <time>2020-08-09T07:55:14Z</time>
      </trkpt>
      <trkpt lat="46.54001" lon="4.53435">
        <ele>232.601</ele>
        <time>2020-08-09T07:55:21Z</time>
      </trkpt>
      <trkpt lat="46.54008" lon="4.53434">
        <ele>233.601</ele>
        <time>2020-08-09T07:55:27Z</time>
      </trkpt>
      <trkpt lat="46.54015" lon="4.53435">
        <ele>232.601</ele>
        <time>2020-08-09T07:55:32Z</time>
      </trkpt>
      <trkpt lat="46.54023" lon="4.53436">
        <ele>231.601</ele>
        <time>2020-08-09T07:55:37Z</time>
      </trkpt>
      <trkpt lat="46.54031" lon="4.53437">
        <ele>231.601</ele>
        <time>2020-08-09T07:55:43Z</time>
      </trkpt>
      <trkpt lat="46.54038" lon="4.53439">
        <ele>233.601</ele>
        <time>2020-08-09T07:55:53Z</time>
      </trkpt>
      <trkpt lat="46.54046" lon="4.53443">
        <ele>233.601</ele>
        <time>2020-08-09T07:55:58Z</time>
      </trkpt>
      <trkpt lat="46.54053" lon="4.53445">
        <ele>233.601</ele>
        <time>2020-08-09T07:56:04Z</time>
      </trkpt>
      <trkpt lat="46.5406" lon="4.53449">
        <ele>233.601</ele>
        <time>2020-08-09T07:56:10Z</time>
      </trkpt>
      <trkpt lat="46.54063" lon="4.53458">
        <ele>235.601</ele>
        <time>2020-08-09T07:56:36Z</time>
      </trkpt>
      <trkpt lat="46.54069" lon="4.53456">
        <ele>236.601</ele>
        <time>2020-08-09T08:02:24Z</time>
      </trkpt>
      <trkpt lat="46.54078" lon="4.5346">
        <ele>236.601</ele>
        <time>2020-08-09T08:02:29Z</time>
      </trkpt>
      <trkpt lat="46.54084" lon="4.53464">
        <ele>235.601</ele>
        <time>2020-08-09T08:02:34Z</time>
      </trkpt>
      <trkpt lat="46.54089" lon="4.5347">
        <ele>234.601</ele>
        <time>2020-08-09T08:04:25Z</time>
      </trkpt>
      <trkpt lat="46.54091" lon="4.5348">
        <ele>234.601</ele>
        <time>2020-08-09T08:04:32Z</time>
      </trkpt>
      <trkpt lat="46.54094" lon="4.53488">
        <ele>232.601</ele>
        <time>2020-08-09T08:04:39Z</time>
      </trkpt>
      <trkpt lat="46.54098" lon="4.53498">
        <ele>231.601</ele>
        <time>2020-08-09T08:04:46Z</time>
      </trkpt>
      <trkpt lat="46.54101" lon="4.53508">
        <ele>231.601</ele>
        <time>2020-08-09T08:04:52Z</time>
      </trkpt>
      <trkpt lat="46.54104" lon="4.53517">
        <ele>231.601</ele>
        <time>2020-08-09T08:04:58Z</time>
      </trkpt>
      <trkpt lat="46.54106" lon="4.53527">
        <ele>234.601</ele>
        <time>2020-08-09T08:05:03Z</time>
      </trkpt>
      <trkpt lat="46.54106" lon="4.53537">
        <ele>234.601</ele>
        <time>2020-08-09T08:05:09Z</time>
      </trkpt>
      <trkpt lat="46.54105" lon="4.53548">
        <ele>233.601</ele>
        <time>2020-08-09T08:05:15Z</time>
      </trkpt>
      <trkpt lat="46.54104" lon="4.53557">
        <ele>234.601</ele>
        <time>2020-08-09T08:05:20Z</time>
      </trkpt>
      <trkpt lat="46.54101" lon="4.53568">
        <ele>233.601</ele>
        <time>2020-08-09T08:05:26Z</time>
      </trkpt>
      <trkpt lat="46.54099" lon="4.53576">
        <ele>234.601</ele>
        <time>2020-08-09T08:05:31Z</time>
      </trkpt>
      <trkpt lat="46.54096" lon="4.53586">
        <ele>232.601</ele>
        <time>2020-08-09T08:05:37Z</time>
      </trkpt>
      <trkpt lat="46.54095" lon="4.53596">
        <ele>234.601</ele>
        <time>2020-08-09T08:05:42Z</time>
      </trkpt>
      <trkpt lat="46.54093" lon="4.53606">
        <ele>233.601</ele>
        <time>2020-08-09T08:05:48Z</time>
      </trkpt>
      <trkpt lat="46.5409" lon="4.53616">
        <ele>234.601</ele>
        <time>2020-08-09T08:05:54Z</time>
      </trkpt>
      <trkpt lat="46.54089" lon="4.53626">
        <ele>234.601</ele>
        <time>2020-08-09T08:05:59Z</time>
      </trkpt>
      <trkpt lat="46.54086" lon="4.53636">
        <ele>234.601</ele>
        <time>2020-08-09T08:06:05Z</time>
      </trkpt>
      <trkpt lat="46.54084" lon="4.53646">
        <ele>234.601</ele>
        <time>2020-08-09T08:06:11Z</time>
      </trkpt>
      <trkpt lat="46.54082" lon="4.53655">
        <ele>234.601</ele>
        <time>2020-08-09T08:06:16Z</time>
      </trkpt>
      <trkpt lat="46.54081" lon="4.53666">
        <ele>233.601</ele>
        <time>2020-08-09T08:06:23Z</time>
      </trkpt>
      <trkpt lat="46.54078" lon="4.53675">
        <ele>234.601</ele>
        <time>2020-08-09T08:06:28Z</time>
      </trkpt>
      <trkpt lat="46.54077" lon="4.53687">
        <ele>234.601</ele>
        <time>2020-08-09T08:06:33Z</time>
      </trkpt>
      <trkpt lat="46.54077" lon="4.53697">
        <ele>234.601</ele>
        <time>2020-08-09T08:06:38Z</time>
      </trkpt>
      <trkpt lat="46.54078" lon="4.53707">
        <ele>235.601</ele>
        <time>2020-08-09T08:06:43Z</time>
      </trkpt>
      <trkpt lat="46.54081" lon="4.53716">
        <ele>234.601</ele>
        <time>2020-08-09T08:06:48Z</time>
      </trkpt>
      <trkpt lat="46.54085" lon="4.53726">
        <ele>234.601</ele>
        <time>2020-08-09T08:06:53Z</time>
      </trkpt>
      <trkpt lat="46.54091" lon="4.53732">
        <ele>232.601</ele>
        <time>2020-08-09T08:06:59Z</time>
      </trkpt>
      <trkpt lat="46.54096" lon="4.53738">
        <ele>230.601</ele>
        <time>2020-08-09T08:07:47Z</time>
      </trkpt>
      <trkpt lat="46.54103" lon="4.53742">
        <ele>232.602</ele>
        <time>2020-08-09T08:08:07Z</time>
      </trkpt>
      <trkpt lat="46.54109" lon="4.53745">
        <ele>231.602</ele>
        <time>2020-08-09T08:08:16Z</time>
      </trkpt>
      <trkpt lat="46.54114" lon="4.53751">
        <ele>232.602</ele>
        <time>2020-08-09T08:08:22Z</time>
      </trkpt>
      <trkpt lat="46.54121" lon="4.53754">
        <ele>232.602</ele>
        <time>2020-08-09T08:08:30Z</time>
      </trkpt>
      <trkpt lat="46.54128" lon="4.53756">
        <ele>232.602</ele>
        <time>2020-08-09T08:08:38Z</time>
      </trkpt>
      <trkpt lat="46.54134" lon="4.53759">
        <ele>231.602</ele>
        <time>2020-08-09T08:08:44Z</time>
      </trkpt>
      <trkpt lat="46.5414" lon="4.53763">
        <ele>236.602</ele>
        <time>2020-08-09T08:08:49Z</time>
      </trkpt>
      <trkpt lat="46.54148" lon="4.53767">
        <ele>238.602</ele>
        <time>2020-08-09T08:08:54Z</time>
      </trkpt>
      <trkpt lat="46.54155" lon="4.53769">
        <ele>237.602</ele>
        <time>2020-08-09T08:08:59Z</time>
      </trkpt>
      <trkpt lat="46.54161" lon="4.53773">
        <ele>238.602</ele>
        <time>2020-08-09T08:09:04Z</time>
      </trkpt>
      <trkpt lat="46.54166" lon="4.53779">
        <ele>237.602</ele>
        <time>2020-08-09T08:09:10Z</time>
      </trkpt>
      <trkpt lat="46.54171" lon="4.53786">
        <ele>237.602</ele>
        <time>2020-08-09T08:09:16Z</time>
      </trkpt>
      <trkpt lat="46.54173" lon="4.53798">
        <ele>237.602</ele>
        <time>2020-08-09T08:09:22Z</time>
      </trkpt>
      <trkpt lat="46.54176" lon="4.53808">
        <ele>235.602</ele>
        <time>2020-08-09T08:09:28Z</time>
      </trkpt>
      <trkpt lat="46.54178" lon="4.53819">
        <ele>235.602</ele>
        <time>2020-08-09T08:09:34Z</time>
      </trkpt>
      <trkpt lat="46.54181" lon="4.53827">
        <ele>234.602</ele>
        <time>2020-08-09T08:09:39Z</time>
      </trkpt>
      <trkpt lat="46.54187" lon="4.53833">
        <ele>235.602</ele>
        <time>2020-08-09T08:09:44Z</time>
      </trkpt>
      <trkpt lat="46.54193" lon="4.53837">
        <ele>236.602</ele>
        <time>2020-08-09T08:09:50Z</time>
      </trkpt>
      <trkpt lat="46.542" lon="4.53838">
        <ele>239.602</ele>
        <time>2020-08-09T08:09:57Z</time>
      </trkpt>
      <trkpt lat="46.54207" lon="4.5384">
        <ele>238.602</ele>
        <time>2020-08-09T08:10:04Z</time>
      </trkpt>
      <trkpt lat="46.54215" lon="4.5384">
        <ele>242.602</ele>
        <time>2020-08-09T08:10:14Z</time>
      </trkpt>
      <trkpt lat="46.54224" lon="4.53842">
        <ele>238.602</ele>
        <time>2020-08-09T08:10:19Z</time>
      </trkpt>
      <trkpt lat="46.54236" lon="4.53843">
        <ele>238.602</ele>
        <time>2020-08-09T08:10:24Z</time>
      </trkpt>
      <trkpt lat="46.54245" lon="4.53843">
        <ele>239.602</ele>
        <time>2020-08-09T08:10:29Z</time>
      </trkpt>
      <trkpt lat="46.54252" lon="4.53844">
        <ele>241.602</ele>
        <time>2020-08-09T08:10:35Z</time>
      </trkpt>
      <trkpt lat="46.54259" lon="4.53843">
        <ele>243.602</ele>
        <time>2020-08-09T08:10:40Z</time>
      </trkpt>
      <trkpt lat="46.54268" lon="4.53842">
        <ele>244.602</ele>
        <time>2020-08-09T08:10:45Z</time>
      </trkpt>
      <trkpt lat="46.54275" lon="4.5384">
        <ele>246.602</ele>
        <time>2020-08-09T08:10:51Z</time>
      </trkpt>
      <trkpt lat="46.54282" lon="4.53841">
        <ele>246.602</ele>
        <time>2020-08-09T08:10:56Z</time>
      </trkpt>
      <trkpt lat="46.54291" lon="4.53845">
        <ele>244.602</ele>
        <time>2020-08-09T08:11:01Z</time>
      </trkpt>
      <trkpt lat="46.54298" lon="4.53847">
        <ele>248.602</ele>
        <time>2020-08-09T08:11:06Z</time>
      </trkpt>
      <trkpt lat="46.54305" lon="4.53851">
        <ele>248.602</ele>
        <time>2020-08-09T08:11:12Z</time>
      </trkpt>
      <trkpt lat="46.54314" lon="4.53852">
        <ele>246.602</ele>
        <time>2020-08-09T08:11:17Z</time>
      </trkpt>
      <trkpt lat="46.54321" lon="4.53855">
        <ele>245.602</ele>
        <time>2020-08-09T08:11:22Z</time>
      </trkpt>
      <trkpt lat="46.54328" lon="4.53858">
        <ele>243.602</ele>
        <time>2020-08-09T08:11:27Z</time>
      </trkpt>
      <trkpt lat="46.54334" lon="4.5386">
        <ele>244.602</ele>
        <time>2020-08-09T08:11:32Z</time>
      </trkpt>
      <trkpt lat="46.54342" lon="4.53863">
        <ele>244.602</ele>
        <time>2020-08-09T08:11:37Z</time>
      </trkpt>
      <trkpt lat="46.54349" lon="4.53869">
        <ele>245.602</ele>
        <time>2020-08-09T08:11:42Z</time>
      </trkpt>
      <trkpt lat="46.54356" lon="4.53871">
        <ele>247.602</ele>
        <time>2020-08-09T08:11:47Z</time>
      </trkpt>
      <trkpt lat="46.54363" lon="4.53875">
        <ele>247.602</ele>
        <time>2020-08-09T08:11:52Z</time>
      </trkpt>
      <trkpt lat="46.5437" lon="4.53879">
        <ele>247.602</ele>
        <time>2020-08-09T08:11:57Z</time>
      </trkpt>
      <trkpt lat="46.54377" lon="4.53885">
        <ele>247.602</ele>
        <time>2020-08-09T08:12:02Z</time>
      </trkpt>
      <trkpt lat="46.54382" lon="4.53892">
        <ele>247.602</ele>
        <time>2020-08-09T08:12:07Z</time>
      </trkpt>
      <trkpt lat="46.54388" lon="4.53898">
        <ele>247.602</ele>
        <time>2020-08-09T08:12:13Z</time>
      </trkpt>
      <trkpt lat="46.54394" lon="4.53905">
        <ele>247.602</ele>
        <time>2020-08-09T08:12:21Z</time>
      </trkpt>
      <trkpt lat="46.54399" lon="4.5391">
        <ele>248.602</ele>
        <time>2020-08-09T08:12:28Z</time>
      </trkpt>
      <trkpt lat="46.54404" lon="4.53917">
        <ele>246.602</ele>
        <time>2020-08-09T08:12:34Z</time>
      </trkpt>
      <trkpt lat="46.54409" lon="4.53927">
        <ele>247.602</ele>
        <time>2020-08-09T08:12:40Z</time>
      </trkpt>
      <trkpt lat="46.54415" lon="4.53933">
        <ele>247.603</ele>
        <time>2020-08-09T08:12:45Z</time>
      </trkpt>
      <trkpt lat="46.54421" lon="4.53941">
        <ele>248.603</ele>
        <time>2020-08-09T08:12:52Z</time>
      </trkpt>
      <trkpt lat="46.54426" lon="4.53948">
        <ele>249.603</ele>
        <time>2020-08-09T08:12:58Z</time>
      </trkpt>
      <trkpt lat="46.54432" lon="4.53959">
        <ele>249.603</ele>
        <time>2020-08-09T08:13:04Z</time>
      </trkpt>
      <trkpt lat="46.54436" lon="4.53967">
        <ele>250.603</ele>
        <time>2020-08-09T08:13:09Z</time>
      </trkpt>
      <trkpt lat="46.54439" lon="4.53976">
        <ele>250.603</ele>
        <time>2020-08-09T08:13:14Z</time>
      </trkpt>
      <trkpt lat="46.54444" lon="4.53985">
        <ele>249.603</ele>
        <time>2020-08-09T08:13:19Z</time>
      </trkpt>
      <trkpt lat="46.5445" lon="4.53992">
        <ele>248.603</ele>
        <time>2020-08-09T08:13:26Z</time>
      </trkpt>
      <trkpt lat="46.54454" lon="4.54">
        <ele>248.603</ele>
        <time>2020-08-09T08:13:31Z</time>
      </trkpt>
      <trkpt lat="46.54458" lon="4.5401">
        <ele>252.603</ele>
        <time>2020-08-09T08:13:37Z</time>
      </trkpt>
      <trkpt lat="46.54463" lon="4.54016">
        <ele>252.603</ele>
        <time>2020-08-09T08:13:42Z</time>
      </trkpt>
      <trkpt lat="46.54467" lon="4.54023">
        <ele>253.603</ele>
        <time>2020-08-09T08:13:47Z</time>
      </trkpt>
      <trkpt lat="46.54472" lon="4.54031">
        <ele>254.603</ele>
        <time>2020-08-09T08:13:52Z</time>
      </trkpt>
      <trkpt lat="46.54476" lon="4.54039">
        <ele>255.603</ele>
        <time>2020-08-09T08:13:57Z</time>
      </trkpt>
      <trkpt lat="46.54482" lon="4.54045">
        <ele>258.603</ele>
        <time>2020-08-09T08:14:02Z</time>
      </trkpt>
      <trkpt lat="46.54486" lon="4.54055">
        <ele>258.603</ele>
        <time>2020-08-09T08:14:07Z</time>
      </trkpt>
      <trkpt lat="46.54491" lon="4.54061">
        <ele>258.603</ele>
        <time>2020-08-09T08:14:13Z</time>
      </trkpt>
      <trkpt lat="46.54494" lon="4.54071">
        <ele>259.603</ele>
        <time>2020-08-09T08:14:18Z</time>
      </trkpt>
      <trkpt lat="46.545" lon="4.54074">
        <ele>259.603</ele>
        <time>2020-08-09T08:14:26Z</time>
      </trkpt>
      <trkpt lat="46.54507" lon="4.5408">
        <ele>261.603</ele>
        <time>2020-08-09T08:14:32Z</time>
      </trkpt>
      <trkpt lat="46.5451" lon="4.54088">
        <ele>263.603</ele>
        <time>2020-08-09T08:14:37Z</time>
      </trkpt>
      <trkpt lat="46.54517" lon="4.54094">
        <ele>262.603</ele>
        <time>2020-08-09T08:14:42Z</time>
      </trkpt>
      <trkpt lat="46.54523" lon="4.541">
        <ele>264.603</ele>
        <time>2020-08-09T08:14:48Z</time>
      </trkpt>
      <trkpt lat="46.54524" lon="4.54109">
        <ele>267.603</ele>
        <time>2020-08-09T08:14:57Z</time>
      </trkpt>
      <trkpt lat="46.54529" lon="4.54118">
        <ele>268.603</ele>
        <time>2020-08-09T08:15:05Z</time>
      </trkpt>
      <trkpt lat="46.54535" lon="4.54123">
        <ele>265.603</ele>
        <time>2020-08-09T08:15:11Z</time>
      </trkpt>
      <trkpt lat="46.54541" lon="4.54128">
        <ele>264.603</ele>
        <time>2020-08-09T08:15:16Z</time>
      </trkpt>
      <trkpt lat="46.54547" lon="4.54136">
        <ele>266.603</ele>
        <time>2020-08-09T08:15:21Z</time>
      </trkpt>
      <trkpt lat="46.54552" lon="4.54143">
        <ele>267.603</ele>
        <time>2020-08-09T08:15:26Z</time>
      </trkpt>
      <trkpt lat="46.54558" lon="4.54147">
        <ele>268.603</ele>
        <time>2020-08-09T08:15:32Z</time>
      </trkpt>
      <trkpt lat="46.54565" lon="4.54151">
        <ele>268.603</ele>
        <time>2020-08-09T08:15:37Z</time>
      </trkpt>
      <trkpt lat="46.5457" lon="4.54157">
        <ele>266.603</ele>
        <time>2020-08-09T08:15:44Z</time>
      </trkpt>
      <trkpt lat="46.54575" lon="4.54163">
        <ele>267.603</ele>
        <time>2020-08-09T08:15:49Z</time>
      </trkpt>
      <trkpt lat="46.54582" lon="4.54169">
        <ele>269.603</ele>
        <time>2020-08-09T08:15:56Z</time>
      </trkpt>
      <trkpt lat="46.54587" lon="4.54177">
        <ele>269.603</ele>
        <time>2020-08-09T08:16:02Z</time>
      </trkpt>
      <trkpt lat="46.54593" lon="4.54181">
        <ele>272.603</ele>
        <time>2020-08-09T08:16:09Z</time>
      </trkpt>
      <trkpt lat="46.54599" lon="4.54188">
        <ele>271.603</ele>
        <time>2020-08-09T08:16:14Z</time>
      </trkpt>
      <trkpt lat="46.54604" lon="4.54194">
        <ele>271.603</ele>
        <time>2020-08-09T08:16:21Z</time>
      </trkpt>
      <trkpt lat="46.54609" lon="4.54202">
        <ele>275.603</ele>
        <time>2020-08-09T08:16:26Z</time>
      </trkpt>
      <trkpt lat="46.54614" lon="4.54213">
        <ele>277.603</ele>
        <time>2020-08-09T08:16:31Z</time>
      </trkpt>
      <trkpt lat="46.54618" lon="4.54222">
        <ele>282.603</ele>
        <time>2020-08-09T08:16:36Z</time>
      </trkpt>
      <trkpt lat="46.54623" lon="4.54229">
        <ele>284.603</ele>
        <time>2020-08-09T08:16:41Z</time>
      </trkpt>
      <trkpt lat="46.54627" lon="4.54237">
        <ele>283.603</ele>
        <time>2020-08-09T08:16:47Z</time>
      </trkpt>
      <trkpt lat="46.54633" lon="4.54243">
        <ele>284.603</ele>
        <time>2020-08-09T08:16:52Z</time>
      </trkpt>
      <trkpt lat="46.54643" lon="4.54246">
        <ele>283.603</ele>
        <time>2020-08-09T08:16:58Z</time>
      </trkpt>
      <trkpt lat="46.54649" lon="4.5425">
        <ele>284.603</ele>
        <time>2020-08-09T08:17:03Z</time>
      </trkpt>
      <trkpt lat="46.54656" lon="4.54252">
        <ele>288.603</ele>
        <time>2020-08-09T08:17:08Z</time>
      </trkpt>
      <trkpt lat="46.54664" lon="4.54256">
        <ele>290.603</ele>
        <time>2020-08-09T08:17:14Z</time>
      </trkpt>
      <trkpt lat="46.54672" lon="4.54259">
        <ele>293.603</ele>
        <time>2020-08-09T08:17:22Z</time>
      </trkpt>
      <trkpt lat="46.54681" lon="4.54263">
        <ele>292.603</ele>
        <time>2020-08-09T08:17:27Z</time>
      </trkpt>
      <trkpt lat="46.5469" lon="4.54266">
        <ele>287.603</ele>
        <time>2020-08-09T08:17:34Z</time>
      </trkpt>
      <trkpt lat="46.54698" lon="4.54272">
        <ele>285.604</ele>
        <time>2020-08-09T08:17:39Z</time>
      </trkpt>
      <trkpt lat="46.54704" lon="4.54277">
        <ele>287.604</ele>
        <time>2020-08-09T08:17:45Z</time>
      </trkpt>
      <trkpt lat="46.54711" lon="4.54282">
        <ele>288.604</ele>
        <time>2020-08-09T08:17:51Z</time>
      </trkpt>
      <trkpt lat="46.54717" lon="4.5429">
        <ele>289.604</ele>
        <time>2020-08-09T08:17:56Z</time>
      </trkpt>
      <trkpt lat="46.54724" lon="4.5429">
        <ele>288.604</ele>
        <time>2020-08-09T08:18:01Z</time>
      </trkpt>
      <trkpt lat="46.54731" lon="4.54294">
        <ele>289.604</ele>
        <time>2020-08-09T08:18:06Z</time>
      </trkpt>
      <trkpt lat="46.54737" lon="4.54301">
        <ele>291.604</ele>
        <time>2020-08-09T08:18:11Z</time>
      </trkpt>
      <trkpt lat="46.54744" lon="4.54308">
        <ele>291.604</ele>
        <time>2020-08-09T08:18:16Z</time>
      </trkpt>
      <trkpt lat="46.54749" lon="4.54318">
        <ele>291.604</ele>
        <time>2020-08-09T08:18:21Z</time>
      </trkpt>
      <trkpt lat="46.54754" lon="4.54326">
        <ele>290.604</ele>
        <time>2020-08-09T08:18:26Z</time>
      </trkpt>
      <trkpt lat="46.5476" lon="4.54332">
        <ele>290.604</ele>
        <time>2020-08-09T08:18:33Z</time>
      </trkpt>
      <trkpt lat="46.54765" lon="4.54339">
        <ele>289.604</ele>
        <time>2020-08-09T08:18:39Z</time>
      </trkpt>
      <trkpt lat="46.54771" lon="4.54345">
        <ele>287.604</ele>
        <time>2020-08-09T08:18:45Z</time>
      </trkpt>
      <trkpt lat="46.54776" lon="4.54352">
        <ele>287.604</ele>
        <time>2020-08-09T08:18:51Z</time>
      </trkpt>
      <trkpt lat="46.54779" lon="4.54361">
        <ele>286.604</ele>
        <time>2020-08-09T08:18:56Z</time>
      </trkpt>
      <trkpt lat="46.5478" lon="4.54375">
        <ele>288.604</ele>
        <time>2020-08-09T08:19:01Z</time>
      </trkpt>
      <trkpt lat="46.54782" lon="4.54385">
        <ele>288.604</ele>
        <time>2020-08-09T08:19:06Z</time>
      </trkpt>
      <trkpt lat="46.54785" lon="4.54396">
        <ele>289.604</ele>
        <time>2020-08-09T08:19:11Z</time>
      </trkpt>
      <trkpt lat="46.54787" lon="4.54409">
        <ele>291.604</ele>
        <time>2020-08-09T08:19:16Z</time>
      </trkpt>
      <trkpt lat="46.54794" lon="4.54416">
        <ele>289.604</ele>
        <time>2020-08-09T08:19:22Z</time>
      </trkpt>
      <trkpt lat="46.548" lon="4.54421">
        <ele>287.604</ele>
        <time>2020-08-09T08:19:27Z</time>
      </trkpt>
      <trkpt lat="46.54807" lon="4.54424">
        <ele>284.604</ele>
        <time>2020-08-09T08:19:33Z</time>
      </trkpt>
      <trkpt lat="46.54812" lon="4.54429">
        <ele>285.604</ele>
        <time>2020-08-09T08:19:38Z</time>
      </trkpt>
      <trkpt lat="46.54819" lon="4.54433">
        <ele>284.604</ele>
        <time>2020-08-09T08:19:44Z</time>
      </trkpt>
      <trkpt lat="46.54825" lon="4.54437">
        <ele>282.604</ele>
        <time>2020-08-09T08:19:51Z</time>
      </trkpt>
      <trkpt lat="46.54832" lon="4.5444">
        <ele>284.604</ele>
        <time>2020-08-09T08:20:58Z</time>
      </trkpt>
      <trkpt lat="46.54833" lon="4.54449">
        <ele>283.604</ele>
        <time>2020-08-09T08:22:03Z</time>
      </trkpt>
      <trkpt lat="46.54839" lon="4.54455">
        <ele>281.604</ele>
        <time>2020-08-09T08:22:11Z</time>
      </trkpt>
      <trkpt lat="46.54846" lon="4.54462">
        <ele>280.604</ele>
        <time>2020-08-09T08:22:17Z</time>
      </trkpt>
      <trkpt lat="46.54852" lon="4.54467">
        <ele>280.604</ele>
        <time>2020-08-09T08:22:22Z</time>
      </trkpt>
      <trkpt lat="46.54858" lon="4.54472">
        <ele>280.604</ele>
        <time>2020-08-09T08:22:27Z</time>
      </trkpt>
      <trkpt lat="46.54865" lon="4.54477">
        <ele>279.604</ele>
        <time>2020-08-09T08:22:33Z</time>
      </trkpt>
      <trkpt lat="46.54872" lon="4.54478">
        <ele>277.604</ele>
        <time>2020-08-09T08:22:38Z</time>
      </trkpt>
      <trkpt lat="46.54879" lon="4.54477">
        <ele>278.604</ele>
        <time>2020-08-09T08:22:45Z</time>
      </trkpt>
      <trkpt lat="46.54887" lon="4.54474">
        <ele>279.604</ele>
        <time>2020-08-09T08:22:52Z</time>
      </trkpt>
      <trkpt lat="46.54893" lon="4.54475">
        <ele>279.604</ele>
        <time>2020-08-09T08:22:59Z</time>
      </trkpt>
      <trkpt lat="46.54901" lon="4.54477">
        <ele>282.604</ele>
        <time>2020-08-09T08:23:11Z</time>
      </trkpt>
      <trkpt lat="46.54908" lon="4.5448">
        <ele>282.604</ele>
        <time>2020-08-09T08:23:38Z</time>
      </trkpt>
      <trkpt lat="46.54915" lon="4.54481">
        <ele>282.604</ele>
        <time>2020-08-09T08:23:45Z</time>
      </trkpt>
      <trkpt lat="46.54923" lon="4.54483">
        <ele>283.604</ele>
        <time>2020-08-09T08:23:51Z</time>
      </trkpt>
      <trkpt lat="46.54929" lon="4.54482">
        <ele>283.604</ele>
        <time>2020-08-09T08:23:57Z</time>
      </trkpt>
      <trkpt lat="46.54936" lon="4.54486">
        <ele>279.604</ele>
        <time>2020-08-09T08:24:02Z</time>
      </trkpt>
      <trkpt lat="46.54942" lon="4.54488">
        <ele>285.604</ele>
        <time>2020-08-09T08:24:12Z</time>
      </trkpt>
      <trkpt lat="46.54949" lon="4.54485">
        <ele>281.604</ele>
        <time>2020-08-09T08:24:17Z</time>
      </trkpt>
      <trkpt lat="46.54956" lon="4.54487">
        <ele>278.604</ele>
        <time>2020-08-09T08:24:22Z</time>
      </trkpt>
      <trkpt lat="46.54964" lon="4.54488">
        <ele>280.604</ele>
        <time>2020-08-09T08:24:28Z</time>
      </trkpt>
      <trkpt lat="46.54971" lon="4.5449">
        <ele>282.604</ele>
        <time>2020-08-09T08:24:34Z</time>
      </trkpt>
      <trkpt lat="46.54978" lon="4.5449">
        <ele>282.604</ele>
        <time>2020-08-09T08:24:42Z</time>
      </trkpt>
      <trkpt lat="46.54985" lon="4.54493">
        <ele>283.604</ele>
        <time>2020-08-09T08:24:48Z</time>
      </trkpt>
      <trkpt lat="46.54993" lon="4.54496">
        <ele>282.604</ele>
        <time>2020-08-09T08:24:53Z</time>
      </trkpt>
      <trkpt lat="46.55001" lon="4.54496">
        <ele>282.605</ele>
        <time>2020-08-09T08:25:00Z</time>
      </trkpt>
      <trkpt lat="46.55008" lon="4.54497">
        <ele>281.605</ele>
        <time>2020-08-09T08:25:05Z</time>
      </trkpt>
      <trkpt lat="46.55015" lon="4.54502">
        <ele>285.605</ele>
        <time>2020-08-09T08:25:22Z</time>
      </trkpt>
      <trkpt lat="46.55021" lon="4.54502">
        <ele>286.605</ele>
        <time>2020-08-09T08:25:34Z</time>
      </trkpt>
      <trkpt lat="46.55029" lon="4.545">
        <ele>283.605</ele>
        <time>2020-08-09T08:25:39Z</time>
      </trkpt>
      <trkpt lat="46.55036" lon="4.54502">
        <ele>287.605</ele>
        <time>2020-08-09T08:25:47Z</time>
      </trkpt>
      <trkpt lat="46.55042" lon="4.54503">
        <ele>288.605</ele>
        <time>2020-08-09T08:25:55Z</time>
      </trkpt>
      <trkpt lat="46.5505" lon="4.54502">
        <ele>279.605</ele>
        <time>2020-08-09T08:26:00Z</time>
      </trkpt>
      <trkpt lat="46.55056" lon="4.54498">
        <ele>276.605</ele>
        <time>2020-08-09T08:26:05Z</time>
      </trkpt>
      <trkpt lat="46.55064" lon="4.54493">
        <ele>278.605</ele>
        <time>2020-08-09T08:26:15Z</time>
      </trkpt>
      <trkpt lat="46.55072" lon="4.54489">
        <ele>276.605</ele>
        <time>2020-08-09T08:26:20Z</time>
      </trkpt>
      <trkpt lat="46.55079" lon="4.54486">
        <ele>277.605</ele>
        <time>2020-08-09T08:26:25Z</time>
      </trkpt>
      <trkpt lat="46.55087" lon="4.54482">
        <ele>273.605</ele>
        <time>2020-08-09T08:26:34Z</time>
      </trkpt>
      <trkpt lat="46.55094" lon="4.54477">
        <ele>271.605</ele>
        <time>2020-08-09T08:26:40Z</time>
      </trkpt>
      <trkpt lat="46.551" lon="4.54473">
        <ele>272.605</ele>
        <time>2020-08-09T08:26:45Z</time>
      </trkpt>
      <trkpt lat="46.55106" lon="4.54466">
        <ele>272.605</ele>
        <time>2020-08-09T08:27:06Z</time>
      </trkpt>
      <trkpt lat="46.55111" lon="4.54461">
        <ele>270.605</ele>
        <time>2020-08-09T08:27:11Z</time>
      </trkpt>
      <trkpt lat="46.55116" lon="4.54454">
        <ele>269.605</ele>
        <time>2020-08-09T08:27:17Z</time>
      </trkpt>
      <trkpt lat="46.55122" lon="4.54447">
        <ele>267.605</ele>
        <time>2020-08-09T08:27:24Z</time>
      </trkpt>
      <trkpt lat="46.5513" lon="4.54439">
        <ele>265.605</ele>
        <time>2020-08-09T08:27:29Z</time>
      </trkpt>
      <trkpt lat="46.55136" lon="4.54435">
        <ele>263.605</ele>
        <time>2020-08-09T08:27:35Z</time>
      </trkpt>
      <trkpt lat="46.55142" lon="4.54429">
        <ele>264.605</ele>
        <time>2020-08-09T08:27:51Z</time>
      </trkpt>
      <trkpt lat="46.55148" lon="4.54424">
        <ele>262.605</ele>
        <time>2020-08-09T08:28:00Z</time>
      </trkpt>
      <trkpt lat="46.55154" lon="4.54418">
        <ele>262.605</ele>
        <time>2020-08-09T08:28:07Z</time>
      </trkpt>
      <trkpt lat="46.55161" lon="4.54414">
        <ele>265.605</ele>
        <time>2020-08-09T08:28:14Z</time>
      </trkpt>
      <trkpt lat="46.55168" lon="4.5441">
        <ele>262.605</ele>
        <time>2020-08-09T08:28:20Z</time>
      </trkpt>
      <trkpt lat="46.55175" lon="4.54405">
        <ele>262.605</ele>
        <time>2020-08-09T08:28:28Z</time>
      </trkpt>
      <trkpt lat="46.55181" lon="4.54403">
        <ele>257.605</ele>
        <time>2020-08-09T08:28:33Z</time>
      </trkpt>
      <trkpt lat="46.55189" lon="4.54403">
        <ele>254.605</ele>
        <time>2020-08-09T08:28:38Z</time>
      </trkpt>
      <trkpt lat="46.55197" lon="4.54402">
        <ele>253.605</ele>
        <time>2020-08-09T08:28:45Z</time>
      </trkpt>
      <trkpt lat="46.55206" lon="4.54403">
        <ele>253.605</ele>
        <time>2020-08-09T08:28:52Z</time>
      </trkpt>
      <trkpt lat="46.55213" lon="4.54406">
        <ele>250.605</ele>
        <time>2020-08-09T08:28:58Z</time>
      </trkpt>
      <trkpt lat="46.5522" lon="4.54407">
        <ele>248.605</ele>
        <time>2020-08-09T08:29:04Z</time>
      </trkpt>
      <trkpt lat="46.55227" lon="4.54408">
        <ele>251.605</ele>
        <time>2020-08-09T08:29:10Z</time>
      </trkpt>
      <trkpt lat="46.55233" lon="4.54414">
        <ele>250.605</ele>
        <time>2020-08-09T08:29:16Z</time>
      </trkpt>
      <trkpt lat="46.5524" lon="4.54415">
        <ele>251.605</ele>
        <time>2020-08-09T08:29:26Z</time>
      </trkpt>
      <trkpt lat="46.55247" lon="4.54418">
        <ele>257.605</ele>
        <time>2020-08-09T08:29:33Z</time>
      </trkpt>
      <trkpt lat="46.55253" lon="4.54417">
        <ele>256.605</ele>
        <time>2020-08-09T08:29:39Z</time>
      </trkpt>
      <trkpt lat="46.5526" lon="4.5442">
        <ele>252.605</ele>
        <time>2020-08-09T08:29:45Z</time>
      </trkpt>
      <trkpt lat="46.55269" lon="4.54421">
        <ele>252.605</ele>
        <time>2020-08-09T08:29:53Z</time>
      </trkpt>
      <trkpt lat="46.55277" lon="4.54419">
        <ele>252.605</ele>
        <time>2020-08-09T08:29:59Z</time>
      </trkpt>
      <trkpt lat="46.55286" lon="4.54418">
        <ele>253.605</ele>
        <time>2020-08-09T08:30:05Z</time>
      </trkpt>
      <trkpt lat="46.55292" lon="4.54414">
        <ele>254.605</ele>
        <time>2020-08-09T08:30:11Z</time>
      </trkpt>
      <trkpt lat="46.55299" lon="4.54411">
        <ele>251.605</ele>
        <time>2020-08-09T08:30:18Z</time>
      </trkpt>
      <trkpt lat="46.55307" lon="4.54408">
        <ele>251.605</ele>
        <time>2020-08-09T08:30:23Z</time>
      </trkpt>
      <trkpt lat="46.55312" lon="4.54401">
        <ele>254.605</ele>
        <time>2020-08-09T08:30:29Z</time>
      </trkpt>
      <trkpt lat="46.55316" lon="4.54394">
        <ele>254.605</ele>
        <time>2020-08-09T08:30:34Z</time>
      </trkpt>
      <trkpt lat="46.55321" lon="4.54385">
        <ele>254.605</ele>
        <time>2020-08-09T08:30:40Z</time>
      </trkpt>
      <trkpt lat="46.55326" lon="4.54377">
        <ele>253.605</ele>
        <time>2020-08-09T08:30:46Z</time>
      </trkpt>
      <trkpt lat="46.55332" lon="4.54368">
        <ele>250.605</ele>
        <time>2020-08-09T08:30:53Z</time>
      </trkpt>
      <trkpt lat="46.55337" lon="4.5436">
        <ele>247.605</ele>
        <time>2020-08-09T08:30:59Z</time>
      </trkpt>
      <trkpt lat="46.55342" lon="4.54352">
        <ele>248.605</ele>
        <time>2020-08-09T08:31:05Z</time>
      </trkpt>
      <trkpt lat="46.55349" lon="4.54346">
        <ele>249.605</ele>
        <time>2020-08-09T08:31:11Z</time>
      </trkpt>
      <trkpt lat="46.55354" lon="4.54338">
        <ele>248.605</ele>
        <time>2020-08-09T08:31:18Z</time>
      </trkpt>
      <trkpt lat="46.55361" lon="4.54331">
        <ele>247.605</ele>
        <time>2020-08-09T08:31:23Z</time>
      </trkpt>
      <trkpt lat="46.55366" lon="4.54325">
        <ele>248.605</ele>
        <time>2020-08-09T08:31:29Z</time>
      </trkpt>
      <trkpt lat="46.55369" lon="4.54314">
        <ele>251.605</ele>
        <time>2020-08-09T08:31:38Z</time>
      </trkpt>
      <trkpt lat="46.55375" lon="4.54306">
        <ele>249.605</ele>
        <time>2020-08-09T08:31:45Z</time>
      </trkpt>
      <trkpt lat="46.55376" lon="4.54297">
        <ele>249.605</ele>
        <time>2020-08-09T08:31:51Z</time>
      </trkpt>
      <trkpt lat="46.55378" lon="4.54286">
        <ele>249.605</ele>
        <time>2020-08-09T08:31:57Z</time>
      </trkpt>
      <trkpt lat="46.55379" lon="4.54276">
        <ele>247.605</ele>
        <time>2020-08-09T08:32:05Z</time>
      </trkpt>
      <trkpt lat="46.55383" lon="4.54265">
        <ele>247.605</ele>
        <time>2020-08-09T08:32:10Z</time>
      </trkpt>
      <trkpt lat="46.55386" lon="4.54257">
        <ele>247.605</ele>
        <time>2020-08-09T08:32:16Z</time>
      </trkpt>
      <trkpt lat="46.55385" lon="4.54248">
        <ele>242.605</ele>
        <time>2020-08-09T08:32:24Z</time>
      </trkpt>
      <trkpt lat="46.55383" lon="4.54238">
        <ele>240.605</ele>
        <time>2020-08-09T08:33:40Z</time>
      </trkpt>
      <trkpt lat="46.55383" lon="4.54228">
        <ele>240.605</ele>
        <time>2020-08-09T08:33:45Z</time>
      </trkpt>
      <trkpt lat="46.55383" lon="4.54218">
        <ele>239.605</ele>
        <time>2020-08-09T08:33:50Z</time>
      </trkpt>
      <trkpt lat="46.55384" lon="4.54208">
        <ele>239.605</ele>
        <time>2020-08-09T08:33:55Z</time>
      </trkpt>
      <trkpt lat="46.55384" lon="4.54198">
        <ele>239.605</ele>
        <time>2020-08-09T08:34:00Z</time>
      </trkpt>
      <trkpt lat="46.55384" lon="4.54187">
        <ele>238.605</ele>
        <time>2020-08-09T08:34:06Z</time>
      </trkpt>
      <trkpt lat="46.55382" lon="4.54176">
        <ele>237.605</ele>
        <time>2020-08-09T08:34:11Z</time>
      </trkpt>
      <trkpt lat="46.55379" lon="4.54167">
        <ele>236.605</ele>
        <time>2020-08-09T08:34:17Z</time>
      </trkpt>
      <trkpt lat="46.55377" lon="4.54158">
        <ele>237.605</ele>
        <time>2020-08-09T08:34:22Z</time>
      </trkpt>
      <trkpt lat="46.55373" lon="4.5415">
        <ele>233.605</ele>
        <time>2020-08-09T08:34:28Z</time>
      </trkpt>
      <trkpt lat="46.55369" lon="4.54142">
        <ele>232.605</ele>
        <time>2020-08-09T08:34:33Z</time>
      </trkpt>
      <trkpt lat="46.55366" lon="4.54133">
        <ele>233.605</ele>
        <time>2020-08-09T08:34:38Z</time>
      </trkpt>
      <trkpt lat="46.55362" lon="4.54124">
        <ele>232.605</ele>
        <time>2020-08-09T08:34:44Z</time>
      </trkpt>
      <trkpt lat="46.55359" lon="4.54115">
        <ele>232.605</ele>
        <time>2020-08-09T08:34:49Z</time>
      </trkpt>
      <trkpt lat="46.55356" lon="4.54105">
        <ele>233.605</ele>
        <time>2020-08-09T08:34:54Z</time>
      </trkpt>
      <trkpt lat="46.55354" lon="4.54093">
        <ele>233.605</ele>
        <time>2020-08-09T08:34:59Z</time>
      </trkpt>
      <trkpt lat="46.55352" lon="4.54084">
        <ele>231.605</ele>
        <time>2020-08-09T08:35:04Z</time>
      </trkpt>
      <trkpt lat="46.55352" lon="4.54073">
        <ele>232.605</ele>
        <time>2020-08-09T08:35:09Z</time>
      </trkpt>
      <trkpt lat="46.55353" lon="4.54062">
        <ele>233.605</ele>
        <time>2020-08-09T08:35:14Z</time>
      </trkpt>
      <trkpt lat="46.55355" lon="4.54051">
        <ele>230.605</ele>
        <time>2020-08-09T08:35:27Z</time>
      </trkpt>
      <trkpt lat="46.55357" lon="4.54041">
        <ele>230.605</ele>
        <time>2020-08-09T08:35:32Z</time>
      </trkpt>
      <trkpt lat="46.55359" lon="4.54032">
        <ele>230.605</ele>
        <time>2020-08-09T08:35:38Z</time>
      </trkpt>
      <trkpt lat="46.55362" lon="4.54022">
        <ele>229.605</ele>
        <time>2020-08-09T08:35:43Z</time>
      </trkpt>
      <trkpt lat="46.55364" lon="4.54012">
        <ele>230.605</ele>
        <time>2020-08-09T08:35:49Z</time>
      </trkpt>
      <trkpt lat="46.55367" lon="4.54004">
        <ele>232.605</ele>
        <time>2020-08-09T08:35:59Z</time>
      </trkpt>
      <trkpt lat="46.55369" lon="4.53995">
        <ele>230.605</ele>
        <time>2020-08-09T08:36:28Z</time>
      </trkpt>
      <trkpt lat="46.55372" lon="4.53985">
        <ele>230.605</ele>
        <time>2020-08-09T08:36:37Z</time>
      </trkpt>
      <trkpt lat="46.55373" lon="4.53975">
        <ele>229.605</ele>
        <time>2020-08-09T08:36:45Z</time>
      </trkpt>
      <trkpt lat="46.55378" lon="4.53969">
        <ele>229.605</ele>
        <time>2020-08-09T08:37:07Z</time>
      </trkpt>
      <trkpt lat="46.55374" lon="4.5396">
        <ele>229.605</ele>
        <time>2020-08-09T08:37:18Z</time>
      </trkpt>
      <trkpt lat="46.55371" lon="4.53951">
        <ele>231.605</ele>
        <time>2020-08-09T08:37:40Z</time>
      </trkpt>
      <trkpt lat="46.55365" lon="4.53948">
        <ele>231.605</ele>
        <time>2020-08-09T08:37:46Z</time>
      </trkpt>
      <trkpt lat="46.55358" lon="4.53948">
        <ele>230.605</ele>
        <time>2020-08-09T08:37:52Z</time>
      </trkpt>
      <trkpt lat="46.55351" lon="4.53948">
        <ele>231.605</ele>
        <time>2020-08-09T08:37:58Z</time>
      </trkpt>
      <trkpt lat="46.55344" lon="4.53944">
        <ele>232.605</ele>
        <time>2020-08-09T08:38:04Z</time>
      </trkpt>
      <trkpt lat="46.55337" lon="4.53944">
        <ele>232.605</ele>
        <time>2020-08-09T08:38:12Z</time>
      </trkpt>
      <trkpt lat="46.5533" lon="4.53943">
        <ele>231.605</ele>
        <time>2020-08-09T08:38:19Z</time>
      </trkpt>
      <trkpt lat="46.55324" lon="4.53941">
        <ele>231.605</ele>
        <time>2020-08-09T08:38:27Z</time>
      </trkpt>
      <trkpt lat="46.55316" lon="4.5394">
        <ele>232.605</ele>
        <time>2020-08-09T08:38:34Z</time>
      </trkpt>
      <trkpt lat="46.5531" lon="4.53938">
        <ele>232.605</ele>
        <time>2020-08-09T08:38:40Z</time>
      </trkpt>
      <trkpt lat="46.55302" lon="4.53938">
        <ele>233.605</ele>
        <time>2020-08-09T08:38:47Z</time>
      </trkpt>
      <trkpt lat="46.55296" lon="4.53937">
        <ele>233.605</ele>
        <time>2020-08-09T08:39:01Z</time>
      </trkpt>
      <trkpt lat="46.55289" lon="4.53936">
        <ele>233.605</ele>
        <time>2020-08-09T08:39:06Z</time>
      </trkpt>
      <trkpt lat="46.55282" lon="4.53933">
        <ele>232.605</ele>
        <time>2020-08-09T08:39:12Z</time>
      </trkpt>
      <trkpt lat="46.55275" lon="4.53932">
        <ele>231.605</ele>
        <time>2020-08-09T08:39:18Z</time>
      </trkpt>
      <trkpt lat="46.55268" lon="4.5393">
        <ele>230.605</ele>
        <time>2020-08-09T08:39:24Z</time>
      </trkpt>
      <trkpt lat="46.55261" lon="4.53927">
        <ele>230.605</ele>
        <time>2020-08-09T08:39:31Z</time>
      </trkpt>
      <trkpt lat="46.55254" lon="4.53926">
        <ele>231.605</ele>
        <time>2020-08-09T08:39:36Z</time>
      </trkpt>
      <trkpt lat="46.55247" lon="4.53922">
        <ele>231.605</ele>
        <time>2020-08-09T08:39:41Z</time>
      </trkpt>
      <trkpt lat="46.55241" lon="4.53919">
        <ele>231.605</ele>
        <time>2020-08-09T08:39:47Z</time>
      </trkpt>
      <trkpt lat="46.55236" lon="4.53914">
        <ele>231.605</ele>
        <time>2020-08-09T08:39:52Z</time>
      </trkpt>
      <trkpt lat="46.5523" lon="4.53909">
        <ele>230.605</ele>
        <time>2020-08-09T08:39:58Z</time>
      </trkpt>
      <trkpt lat="46.55224" lon="4.53904">
        <ele>230.605</ele>
        <time>2020-08-09T08:40:04Z</time>
      </trkpt>
      <trkpt lat="46.55217" lon="4.53899">
        <ele>229.605</ele>
        <time>2020-08-09T08:40:11Z</time>
      </trkpt>
      <trkpt lat="46.55213" lon="4.5389">
        <ele>230.605</ele>
        <time>2020-08-09T08:40:19Z</time>
      </trkpt>
      <trkpt lat="46.55211" lon="4.53879">
        <ele>230.605</ele>
        <time>2020-08-09T08:40:25Z</time>
      </trkpt>
      <trkpt lat="46.5521" lon="4.53869">
        <ele>232.605</ele>
        <time>2020-08-09T08:40:31Z</time>
      </trkpt>
      <trkpt lat="46.55209" lon="4.53859">
        <ele>233.605</ele>
        <time>2020-08-09T08:40:39Z</time>
      </trkpt>
      <trkpt lat="46.55208" lon="4.53849">
        <ele>234.605</ele>
        <time>2020-08-09T08:40:45Z</time>
      </trkpt>
      <trkpt lat="46.55206" lon="4.53839">
        <ele>235.605</ele>
        <time>2020-08-09T08:40:56Z</time>
      </trkpt>
      <trkpt lat="46.55205" lon="4.53828">
        <ele>236.605</ele>
        <time>2020-08-09T08:41:13Z</time>
      </trkpt>
      <trkpt lat="46.55204" lon="4.53818">
        <ele>240.605</ele>
        <time>2020-08-09T08:41:21Z</time>
      </trkpt>
      <trkpt lat="46.55203" lon="4.53808">
        <ele>239.605</ele>
        <time>2020-08-09T08:41:29Z</time>
      </trkpt>
      <trkpt lat="46.55202" lon="4.53798">
        <ele>243.605</ele>
        <time>2020-08-09T08:41:37Z</time>
      </trkpt>
      <trkpt lat="46.55204" lon="4.53788">
        <ele>243.605</ele>
        <time>2020-08-09T08:41:43Z</time>
      </trkpt>
      <trkpt lat="46.55204" lon="4.53777">
        <ele>243.605</ele>
        <time>2020-08-09T08:41:49Z</time>
      </trkpt>
      <trkpt lat="46.55205" lon="4.53768">
        <ele>242.605</ele>
        <time>2020-08-09T08:41:57Z</time>
      </trkpt>
      <trkpt lat="46.55206" lon="4.53756">
        <ele>241.605</ele>
        <time>2020-08-09T08:42:08Z</time>
      </trkpt>
      <trkpt lat="46.55206" lon="4.53745">
        <ele>241.605</ele>
        <time>2020-08-09T08:42:15Z</time>
      </trkpt>
      <trkpt lat="46.55205" lon="4.53735">
        <ele>241.605</ele>
        <time>2020-08-09T08:42:20Z</time>
      </trkpt>
      <trkpt lat="46.55205" lon="4.53725">
        <ele>243.605</ele>
        <time>2020-08-09T08:42:27Z</time>
      </trkpt>
      <trkpt lat="46.55206" lon="4.53714">
        <ele>245.605</ele>
        <time>2020-08-09T08:42:33Z</time>
      </trkpt>
      <trkpt lat="46.55206" lon="4.53705">
        <ele>245.605</ele>
        <time>2020-08-09T08:42:53Z</time>
      </trkpt>
      <trkpt lat="46.55205" lon="4.53694">
        <ele>245.604</ele>
        <time>2020-08-09T08:43:00Z</time>
      </trkpt>
      <trkpt lat="46.55204" lon="4.53683">
        <ele>247.604</ele>
        <time>2020-08-09T08:43:07Z</time>
      </trkpt>
      <trkpt lat="46.55203" lon="4.53673">
        <ele>249.604</ele>
        <time>2020-08-09T08:43:13Z</time>
      </trkpt>
      <trkpt lat="46.55204" lon="4.53663">
        <ele>250.604</ele>
        <time>2020-08-09T08:43:20Z</time>
      </trkpt>
      <trkpt lat="46.55204" lon="4.53651">
        <ele>252.604</ele>
        <time>2020-08-09T08:43:27Z</time>
      </trkpt>
      <trkpt lat="46.55204" lon="4.53641">
        <ele>252.604</ele>
        <time>2020-08-09T08:43:33Z</time>
      </trkpt>
      <trkpt lat="46.55206" lon="4.53631">
        <ele>252.604</ele>
        <time>2020-08-09T08:43:40Z</time>
      </trkpt>
      <trkpt lat="46.55209" lon="4.53621">
        <ele>251.604</ele>
        <time>2020-08-09T08:43:48Z</time>
      </trkpt>
      <trkpt lat="46.5521" lon="4.5361">
        <ele>250.604</ele>
        <time>2020-08-09T08:43:55Z</time>
      </trkpt>
      <trkpt lat="46.55212" lon="4.536">
        <ele>251.604</ele>
        <time>2020-08-09T08:44:01Z</time>
      </trkpt>
      <trkpt lat="46.55214" lon="4.53589">
        <ele>254.604</ele>
        <time>2020-08-09T08:44:07Z</time>
      </trkpt>
      <trkpt lat="46.55216" lon="4.53579">
        <ele>256.604</ele>
        <time>2020-08-09T08:44:13Z</time>
      </trkpt>
      <trkpt lat="46.55218" lon="4.53568">
        <ele>255.604</ele>
        <time>2020-08-09T08:44:19Z</time>
      </trkpt>
      <trkpt lat="46.55219" lon="4.53557">
        <ele>258.604</ele>
        <time>2020-08-09T08:44:24Z</time>
      </trkpt>
      <trkpt lat="46.55222" lon="4.53548">
        <ele>257.604</ele>
        <time>2020-08-09T08:44:30Z</time>
      </trkpt>
      <trkpt lat="46.55225" lon="4.53537">
        <ele>257.604</ele>
        <time>2020-08-09T08:44:36Z</time>
      </trkpt>
      <trkpt lat="46.55226" lon="4.53526">
        <ele>255.604</ele>
        <time>2020-08-09T08:44:44Z</time>
      </trkpt>
      <trkpt lat="46.5523" lon="4.53517">
        <ele>254.604</ele>
        <time>2020-08-09T08:44:50Z</time>
      </trkpt>
      <trkpt lat="46.55235" lon="4.53509">
        <ele>257.604</ele>
        <time>2020-08-09T08:44:55Z</time>
      </trkpt>
      <trkpt lat="46.55238" lon="4.53501">
        <ele>258.604</ele>
        <time>2020-08-09T08:45:01Z</time>
      </trkpt>
      <trkpt lat="46.55244" lon="4.53492">
        <ele>259.604</ele>
        <time>2020-08-09T08:45:07Z</time>
      </trkpt>
      <trkpt lat="46.55247" lon="4.53483">
        <ele>257.604</ele>
        <time>2020-08-09T08:45:13Z</time>
      </trkpt>
      <trkpt lat="46.5525" lon="4.53474">
        <ele>256.604</ele>
        <time>2020-08-09T08:45:18Z</time>
      </trkpt>
      <trkpt lat="46.55256" lon="4.53467">
        <ele>257.604</ele>
        <time>2020-08-09T08:45:23Z</time>
      </trkpt>
      <trkpt lat="46.55259" lon="4.53457">
        <ele>253.604</ele>
        <time>2020-08-09T08:45:29Z</time>
      </trkpt>
      <trkpt lat="46.55261" lon="4.53447">
        <ele>253.604</ele>
        <time>2020-08-09T08:45:35Z</time>
      </trkpt>
      <trkpt lat="46.55263" lon="4.53437">
        <ele>255.604</ele>
        <time>2020-08-09T08:45:41Z</time>
      </trkpt>
      <trkpt lat="46.55263" lon="4.53428">
        <ele>253.604</ele>
        <time>2020-08-09T08:45:47Z</time>
      </trkpt>
      <trkpt lat="46.55267" lon="4.53418">
        <ele>253.604</ele>
        <time>2020-08-09T08:45:53Z</time>
      </trkpt>
      <trkpt lat="46.55269" lon="4.53409">
        <ele>254.604</ele>
        <time>2020-08-09T08:46:00Z</time>
      </trkpt>
      <trkpt lat="46.5527" lon="4.53399">
        <ele>254.604</ele>
        <time>2020-08-09T08:46:06Z</time>
      </trkpt>
      <trkpt lat="46.55269" lon="4.53389">
        <ele>251.604</ele>
        <time>2020-08-09T08:46:13Z</time>
      </trkpt>
      <trkpt lat="46.55273" lon="4.5338">
        <ele>250.604</ele>
        <time>2020-08-09T08:46:19Z</time>
      </trkpt>
      <trkpt lat="46.55275" lon="4.53371">
        <ele>255.604</ele>
        <time>2020-08-09T08:46:24Z</time>
      </trkpt>
      <trkpt lat="46.55277" lon="4.5336">
        <ele>254.604</ele>
        <time>2020-08-09T08:46:29Z</time>
      </trkpt>
      <trkpt lat="46.55278" lon="4.5335">
        <ele>255.604</ele>
        <time>2020-08-09T08:46:38Z</time>
      </trkpt>
      <trkpt lat="46.55277" lon="4.53337">
        <ele>253.604</ele>
        <time>2020-08-09T08:46:44Z</time>
      </trkpt>
      <trkpt lat="46.5528" lon="4.53328">
        <ele>254.604</ele>
        <time>2020-08-09T08:46:49Z</time>
      </trkpt>
      <trkpt lat="46.55279" lon="4.53319">
        <ele>252.604</ele>
        <time>2020-08-09T08:46:54Z</time>
      </trkpt>
      <trkpt lat="46.55281" lon="4.53308">
        <ele>251.604</ele>
        <time>2020-08-09T08:46:59Z</time>
      </trkpt>
      <trkpt lat="46.55281" lon="4.53298">
        <ele>250.604</ele>
        <time>2020-08-09T08:47:05Z</time>
      </trkpt>
      <trkpt lat="46.55283" lon="4.53289">
        <ele>249.604</ele>
        <time>2020-08-09T08:47:10Z</time>
      </trkpt>
      <trkpt lat="46.55282" lon="4.53279">
        <ele>251.604</ele>
        <time>2020-08-09T08:47:15Z</time>
      </trkpt>
      <trkpt lat="46.55281" lon="4.53269">
        <ele>251.604</ele>
        <time>2020-08-09T08:47:21Z</time>
      </trkpt>
      <trkpt lat="46.55282" lon="4.53258">
        <ele>252.604</ele>
        <time>2020-08-09T08:47:27Z</time>
      </trkpt>
      <trkpt lat="46.5528" lon="4.53249">
        <ele>251.604</ele>
        <time>2020-08-09T08:47:33Z</time>
      </trkpt>
      <trkpt lat="46.55279" lon="4.53239">
        <ele>252.604</ele>
        <time>2020-08-09T08:47:38Z</time>
      </trkpt>
      <trkpt lat="46.55277" lon="4.53225">
        <ele>253.604</ele>
        <time>2020-08-09T08:47:43Z</time>
      </trkpt>
      <trkpt lat="46.55276" lon="4.53214">
        <ele>254.604</ele>
        <time>2020-08-09T08:47:55Z</time>
      </trkpt>
      <trkpt lat="46.55275" lon="4.53204">
        <ele>252.604</ele>
        <time>2020-08-09T08:48:00Z</time>
      </trkpt>
      <trkpt lat="46.55275" lon="4.53193">
        <ele>254.604</ele>
        <time>2020-08-09T08:48:06Z</time>
      </trkpt>
      <trkpt lat="46.55273" lon="4.5318">
        <ele>250.604</ele>
        <time>2020-08-09T08:48:11Z</time>
      </trkpt>
      <trkpt lat="46.55274" lon="4.53169">
        <ele>251.604</ele>
        <time>2020-08-09T08:48:16Z</time>
      </trkpt>
      <trkpt lat="46.55273" lon="4.53155">
        <ele>251.604</ele>
        <time>2020-08-09T08:48:21Z</time>
      </trkpt>
      <trkpt lat="46.55273" lon="4.53145">
        <ele>252.604</ele>
        <time>2020-08-09T08:48:29Z</time>
      </trkpt>
      <trkpt lat="46.55272" lon="4.53133">
        <ele>250.604</ele>
        <time>2020-08-09T08:48:34Z</time>
      </trkpt>
      <trkpt lat="46.55273" lon="4.53123">
        <ele>250.604</ele>
        <time>2020-08-09T08:48:40Z</time>
      </trkpt>
      <trkpt lat="46.55274" lon="4.53111">
        <ele>252.604</ele>
        <time>2020-08-09T08:48:45Z</time>
      </trkpt>
      <trkpt lat="46.55274" lon="4.531">
        <ele>252.604</ele>
        <time>2020-08-09T08:48:50Z</time>
      </trkpt>
      <trkpt lat="46.55274" lon="4.5309">
        <ele>252.604</ele>
        <time>2020-08-09T08:48:56Z</time>
      </trkpt>
      <trkpt lat="46.55274" lon="4.5308">
        <ele>255.604</ele>
        <time>2020-08-09T08:49:04Z</time>
      </trkpt>
      <trkpt lat="46.55272" lon="4.5307">
        <ele>253.604</ele>
        <time>2020-08-09T08:49:10Z</time>
      </trkpt>
      <trkpt lat="46.55272" lon="4.5306">
        <ele>250.604</ele>
        <time>2020-08-09T08:49:17Z</time>
      </trkpt>
      <trkpt lat="46.55271" lon="4.5305">
        <ele>251.604</ele>
        <time>2020-08-09T08:49:23Z</time>
      </trkpt>
      <trkpt lat="46.5527" lon="4.53038">
        <ele>252.604</ele>
        <time>2020-08-09T08:49:29Z</time>
      </trkpt>
      <trkpt lat="46.55271" lon="4.53028">
        <ele>252.604</ele>
        <time>2020-08-09T08:49:35Z</time>
      </trkpt>
      <trkpt lat="46.55271" lon="4.53017">
        <ele>254.604</ele>
        <time>2020-08-09T08:49:41Z</time>
      </trkpt>
      <trkpt lat="46.55271" lon="4.53006">
        <ele>254.604</ele>
        <time>2020-08-09T08:49:47Z</time>
      </trkpt>
      <trkpt lat="46.55271" lon="4.52997">
        <ele>255.604</ele>
        <time>2020-08-09T08:49:53Z</time>
      </trkpt>
      <trkpt lat="46.5527" lon="4.52986">
        <ele>255.604</ele>
        <time>2020-08-09T08:50:05Z</time>
      </trkpt>
      <trkpt lat="46.55269" lon="4.52975">
        <ele>255.604</ele>
        <time>2020-08-09T08:50:11Z</time>
      </trkpt>
      <trkpt lat="46.55271" lon="4.52966">
        <ele>255.604</ele>
        <time>2020-08-09T08:50:17Z</time>
      </trkpt>
      <trkpt lat="46.55271" lon="4.52956">
        <ele>253.604</ele>
        <time>2020-08-09T08:50:25Z</time>
      </trkpt>
      <trkpt lat="46.55271" lon="4.52947">
        <ele>254.604</ele>
        <time>2020-08-09T08:50:30Z</time>
      </trkpt>
      <trkpt lat="46.5527" lon="4.52935">
        <ele>254.604</ele>
        <time>2020-08-09T08:50:36Z</time>
      </trkpt>
      <trkpt lat="46.55271" lon="4.52925">
        <ele>254.604</ele>
        <time>2020-08-09T08:50:46Z</time>
      </trkpt>
      <trkpt lat="46.55271" lon="4.52914">
        <ele>254.604</ele>
        <time>2020-08-09T08:50:52Z</time>
      </trkpt>
      <trkpt lat="46.55273" lon="4.52905">
        <ele>251.604</ele>
        <time>2020-08-09T08:50:57Z</time>
      </trkpt>
      <trkpt lat="46.55274" lon="4.52895">
        <ele>253.604</ele>
        <time>2020-08-09T08:51:02Z</time>
      </trkpt>
      <trkpt lat="46.55274" lon="4.52886">
        <ele>254.604</ele>
        <time>2020-08-09T08:51:12Z</time>
      </trkpt>
      <trkpt lat="46.55272" lon="4.52875">
        <ele>252.604</ele>
        <time>2020-08-09T08:51:18Z</time>
      </trkpt>
      <trkpt lat="46.5527" lon="4.52863">
        <ele>251.604</ele>
        <time>2020-08-09T08:51:24Z</time>
      </trkpt>
      <trkpt lat="46.55271" lon="4.52852">
        <ele>250.604</ele>
        <time>2020-08-09T08:51:29Z</time>
      </trkpt>
      <trkpt lat="46.55272" lon="4.5284">
        <ele>250.604</ele>
        <time>2020-08-09T08:51:34Z</time>
      </trkpt>
      <trkpt lat="46.55273" lon="4.5283">
        <ele>249.604</ele>
        <time>2020-08-09T08:51:39Z</time>
      </trkpt>
      <trkpt lat="46.55269" lon="4.52821">
        <ele>248.604</ele>
        <time>2020-08-09T08:52:32Z</time>
      </trkpt>
      <trkpt lat="46.55271" lon="4.52811">
        <ele>248.604</ele>
        <time>2020-08-09T08:52:37Z</time>
      </trkpt>
      <trkpt lat="46.55272" lon="4.52801">
        <ele>251.604</ele>
        <time>2020-08-09T08:52:43Z</time>
      </trkpt>
      <trkpt lat="46.55272" lon="4.5279">
        <ele>254.604</ele>
        <time>2020-08-09T08:52:49Z</time>
      </trkpt>
      <trkpt lat="46.55272" lon="4.5278">
        <ele>253.604</ele>
        <time>2020-08-09T08:52:55Z</time>
      </trkpt>
      <trkpt lat="46.55272" lon="4.52771">
        <ele>256.604</ele>
        <time>2020-08-09T08:53:00Z</time>
      </trkpt>
      <trkpt lat="46.55272" lon="4.52761">
        <ele>255.604</ele>
        <time>2020-08-09T08:53:05Z</time>
      </trkpt>
      <trkpt lat="46.55273" lon="4.5275">
        <ele>250.604</ele>
        <time>2020-08-09T08:53:10Z</time>
      </trkpt>
      <trkpt lat="46.55271" lon="4.52739">
        <ele>254.604</ele>
        <time>2020-08-09T08:53:17Z</time>
      </trkpt>
      <trkpt lat="46.55272" lon="4.52729">
        <ele>249.604</ele>
        <time>2020-08-09T08:53:23Z</time>
      </trkpt>
      <trkpt lat="46.55272" lon="4.5272">
        <ele>251.604</ele>
        <time>2020-08-09T08:53:30Z</time>
      </trkpt>
      <trkpt lat="46.55271" lon="4.52709">
        <ele>249.604</ele>
        <time>2020-08-09T08:53:35Z</time>
      </trkpt>
      <trkpt lat="46.55272" lon="4.52698">
        <ele>250.604</ele>
        <time>2020-08-09T08:53:41Z</time>
      </trkpt>
      <trkpt lat="46.55272" lon="4.52688">
        <ele>249.604</ele>
        <time>2020-08-09T08:53:47Z</time>
      </trkpt>
      <trkpt lat="46.55273" lon="4.52678">
        <ele>252.604</ele>
        <time>2020-08-09T08:53:53Z</time>
      </trkpt>
      <trkpt lat="46.55274" lon="4.52669">
        <ele>254.604</ele>
        <time>2020-08-09T08:54:05Z</time>
      </trkpt>
      <trkpt lat="46.55273" lon="4.52659">
        <ele>252.604</ele>
        <time>2020-08-09T08:54:10Z</time>
      </trkpt>
      <trkpt lat="46.55271" lon="4.52644">
        <ele>258.604</ele>
        <time>2020-08-09T08:54:15Z</time>
      </trkpt>
      <trkpt lat="46.5527" lon="4.52631">
        <ele>258.604</ele>
        <time>2020-08-09T08:54:20Z</time>
      </trkpt>
      <trkpt lat="46.55272" lon="4.52619">
        <ele>261.604</ele>
        <time>2020-08-09T08:54:25Z</time>
      </trkpt>
      <trkpt lat="46.55275" lon="4.52609">
        <ele>262.604</ele>
        <time>2020-08-09T08:54:31Z</time>
      </trkpt>
      <trkpt lat="46.55271" lon="4.52603">
        <ele>261.604</ele>
        <time>2020-08-09T08:54:36Z</time>
      </trkpt>
      <trkpt lat="46.55275" lon="4.52592">
        <ele>260.604</ele>
        <time>2020-08-09T08:54:41Z</time>
      </trkpt>
      <trkpt lat="46.55277" lon="4.52582">
        <ele>262.604</ele>
        <time>2020-08-09T08:54:46Z</time>
      </trkpt>
      <trkpt lat="46.55277" lon="4.52572">
        <ele>263.604</ele>
        <time>2020-08-09T08:54:52Z</time>
      </trkpt>
      <trkpt lat="46.55277" lon="4.52562">
        <ele>263.604</ele>
        <time>2020-08-09T08:54:58Z</time>
      </trkpt>
      <trkpt lat="46.55275" lon="4.52551">
        <ele>262.604</ele>
        <time>2020-08-09T08:55:03Z</time>
      </trkpt>
      <trkpt lat="46.55274" lon="4.52541">
        <ele>263.604</ele>
        <time>2020-08-09T08:55:08Z</time>
      </trkpt>
      <trkpt lat="46.55273" lon="4.52531">
        <ele>263.604</ele>
        <time>2020-08-09T08:55:14Z</time>
      </trkpt>
      <trkpt lat="46.55275" lon="4.52521">
        <ele>264.604</ele>
        <time>2020-08-09T08:55:21Z</time>
      </trkpt>
      <trkpt lat="46.55275" lon="4.52511">
        <ele>265.604</ele>
        <time>2020-08-09T08:55:26Z</time>
      </trkpt>
      <trkpt lat="46.55276" lon="4.525">
        <ele>265.604</ele>
        <time>2020-08-09T08:55:31Z</time>
      </trkpt>
      <trkpt lat="46.55276" lon="4.52488">
        <ele>266.604</ele>
        <time>2020-08-09T08:55:36Z</time>
      </trkpt>
      <trkpt lat="46.55274" lon="4.52478">
        <ele>266.604</ele>
        <time>2020-08-09T08:55:59Z</time>
      </trkpt>
      <trkpt lat="46.55274" lon="4.52468">
        <ele>268.604</ele>
        <time>2020-08-09T08:56:04Z</time>
      </trkpt>
      <trkpt lat="46.55274" lon="4.52458">
        <ele>266.604</ele>
        <time>2020-08-09T08:56:09Z</time>
      </trkpt>
      <trkpt lat="46.55274" lon="4.52446">
        <ele>267.604</ele>
        <time>2020-08-09T08:56:14Z</time>
      </trkpt>
      <trkpt lat="46.55273" lon="4.52436">
        <ele>266.604</ele>
        <time>2020-08-09T08:56:20Z</time>
      </trkpt>
      <trkpt lat="46.55273" lon="4.52425">
        <ele>267.604</ele>
        <time>2020-08-09T08:56:26Z</time>
      </trkpt>
      <trkpt lat="46.55274" lon="4.52415">
        <ele>266.604</ele>
        <time>2020-08-09T08:56:32Z</time>
      </trkpt>
      <trkpt lat="46.55275" lon="4.52405">
        <ele>265.604</ele>
        <time>2020-08-09T08:56:38Z</time>
      </trkpt>
      <trkpt lat="46.55274" lon="4.52395">
        <ele>265.604</ele>
        <time>2020-08-09T08:56:44Z</time>
      </trkpt>
      <trkpt lat="46.55268" lon="4.52389">
        <ele>264.604</ele>
        <time>2020-08-09T08:56:49Z</time>
      </trkpt>
      <trkpt lat="46.55262" lon="4.52389">
        <ele>264.604</ele>
        <time>2020-08-09T08:56:55Z</time>
      </trkpt>
      <trkpt lat="46.55255" lon="4.52391">
        <ele>262.604</ele>
        <time>2020-08-09T08:57:00Z</time>
      </trkpt>
      <trkpt lat="46.55247" lon="4.52392">
        <ele>262.604</ele>
        <time>2020-08-09T08:57:06Z</time>
      </trkpt>
      <trkpt lat="46.55241" lon="4.52396">
        <ele>262.604</ele>
        <time>2020-08-09T08:57:11Z</time>
      </trkpt>
      <trkpt lat="46.55237" lon="4.52404">
        <ele>261.604</ele>
        <time>2020-08-09T08:57:17Z</time>
      </trkpt>
      <trkpt lat="46.55232" lon="4.52411">
        <ele>260.604</ele>
        <time>2020-08-09T08:57:22Z</time>
      </trkpt>
      <trkpt lat="46.55227" lon="4.52417">
        <ele>261.604</ele>
        <time>2020-08-09T08:57:27Z</time>
      </trkpt>
      <trkpt lat="46.55222" lon="4.52423">
        <ele>260.604</ele>
        <time>2020-08-09T08:57:32Z</time>
      </trkpt>
      <trkpt lat="46.55217" lon="4.5243">
        <ele>260.604</ele>
        <time>2020-08-09T08:57:37Z</time>
      </trkpt>
      <trkpt lat="46.55212" lon="4.52437">
        <ele>260.604</ele>
        <time>2020-08-09T08:57:42Z</time>
      </trkpt>
      <trkpt lat="46.55206" lon="4.52443">
        <ele>261.604</ele>
        <time>2020-08-09T08:57:47Z</time>
      </trkpt>
      <trkpt lat="46.55201" lon="4.52448">
        <ele>262.604</ele>
        <time>2020-08-09T08:57:52Z</time>
      </trkpt>
      <trkpt lat="46.55194" lon="4.52454">
        <ele>263.604</ele>
        <time>2020-08-09T08:57:57Z</time>
      </trkpt>
      <trkpt lat="46.55188" lon="4.52458">
        <ele>263.604</ele>
        <time>2020-08-09T08:58:02Z</time>
      </trkpt>
      <trkpt lat="46.55182" lon="4.52464">
        <ele>260.604</ele>
        <time>2020-08-09T08:58:11Z</time>
      </trkpt>
      <trkpt lat="46.55176" lon="4.52467">
        <ele>260.604</ele>
        <time>2020-08-09T08:58:16Z</time>
      </trkpt>
      <trkpt lat="46.55169" lon="4.52472">
        <ele>257.604</ele>
        <time>2020-08-09T08:58:22Z</time>
      </trkpt>
      <trkpt lat="46.55163" lon="4.52475">
        <ele>257.603</ele>
        <time>2020-08-09T08:58:27Z</time>
      </trkpt>
      <trkpt lat="46.55157" lon="4.52481">
        <ele>256.603</ele>
        <time>2020-08-09T08:58:32Z</time>
      </trkpt>
      <trkpt lat="46.5515" lon="4.52483">
        <ele>256.603</ele>
        <time>2020-08-09T08:58:37Z</time>
      </trkpt>
      <trkpt lat="46.55144" lon="4.52488">
        <ele>257.603</ele>
        <time>2020-08-09T08:58:42Z</time>
      </trkpt>
      <trkpt lat="46.55137" lon="4.52491">
        <ele>256.603</ele>
        <time>2020-08-09T08:58:47Z</time>
      </trkpt>
      <trkpt lat="46.55132" lon="4.52497">
        <ele>254.603</ele>
        <time>2020-08-09T08:58:53Z</time>
      </trkpt>
      <trkpt lat="46.55124" lon="4.52498">
        <ele>253.603</ele>
        <time>2020-08-09T08:58:58Z</time>
      </trkpt>
      <trkpt lat="46.55117" lon="4.525">
        <ele>253.603</ele>
        <time>2020-08-09T08:59:03Z</time>
      </trkpt>
      <trkpt lat="46.5511" lon="4.52502">
        <ele>252.603</ele>
        <time>2020-08-09T08:59:08Z</time>
      </trkpt>
      <trkpt lat="46.55102" lon="4.52505">
        <ele>252.603</ele>
        <time>2020-08-09T08:59:13Z</time>
      </trkpt>
      <trkpt lat="46.55096" lon="4.52508">
        <ele>251.603</ele>
        <time>2020-08-09T08:59:18Z</time>
      </trkpt>
      <trkpt lat="46.55089" lon="4.52512">
        <ele>250.603</ele>
        <time>2020-08-09T08:59:23Z</time>
      </trkpt>
      <trkpt lat="46.55085" lon="4.52519">
        <ele>250.603</ele>
        <time>2020-08-09T08:59:28Z</time>
      </trkpt>
      <trkpt lat="46.55079" lon="4.52526">
        <ele>252.603</ele>
        <time>2020-08-09T08:59:34Z</time>
      </trkpt>
      <trkpt lat="46.55073" lon="4.52533">
        <ele>253.603</ele>
        <time>2020-08-09T08:59:39Z</time>
      </trkpt>
      <trkpt lat="46.55067" lon="4.52539">
        <ele>253.603</ele>
        <time>2020-08-09T08:59:44Z</time>
      </trkpt>
      <trkpt lat="46.55061" lon="4.52547">
        <ele>252.603</ele>
        <time>2020-08-09T08:59:50Z</time>
      </trkpt>
      <trkpt lat="46.55056" lon="4.52555">
        <ele>252.603</ele>
        <time>2020-08-09T08:59:56Z</time>
      </trkpt>
      <trkpt lat="46.5505" lon="4.5256">
        <ele>253.603</ele>
        <time>2020-08-09T09:00:01Z</time>
      </trkpt>
      <trkpt lat="46.55045" lon="4.52567">
        <ele>249.603</ele>
        <time>2020-08-09T09:00:09Z</time>
      </trkpt>
      <trkpt lat="46.55039" lon="4.52572">
        <ele>247.603</ele>
        <time>2020-08-09T09:00:15Z</time>
      </trkpt>
      <trkpt lat="46.55032" lon="4.52577">
        <ele>248.603</ele>
        <time>2020-08-09T09:00:20Z</time>
      </trkpt>
      <trkpt lat="46.55025" lon="4.52578">
        <ele>245.603</ele>
        <time>2020-08-09T09:00:25Z</time>
      </trkpt>
      <trkpt lat="46.55018" lon="4.52582">
        <ele>248.603</ele>
        <time>2020-08-09T09:00:30Z</time>
      </trkpt>
      <trkpt lat="46.55012" lon="4.52587">
        <ele>252.603</ele>
        <time>2020-08-09T09:00:35Z</time>
      </trkpt>
      <trkpt lat="46.55006" lon="4.52592">
        <ele>254.603</ele>
        <time>2020-08-09T09:00:40Z</time>
      </trkpt>
      <trkpt lat="46.55001" lon="4.52601">
        <ele>253.603</ele>
        <time>2020-08-09T09:00:45Z</time>
      </trkpt>
      <trkpt lat="46.54995" lon="4.52608">
        <ele>255.603</ele>
        <time>2020-08-09T09:00:50Z</time>
      </trkpt>
      <trkpt lat="46.54992" lon="4.52617">
        <ele>254.603</ele>
        <time>2020-08-09T09:00:55Z</time>
      </trkpt>
      <trkpt lat="46.54989" lon="4.52625">
        <ele>255.603</ele>
        <time>2020-08-09T09:01:00Z</time>
      </trkpt>
      <trkpt lat="46.54985" lon="4.52634">
        <ele>255.603</ele>
        <time>2020-08-09T09:01:05Z</time>
      </trkpt>
      <trkpt lat="46.54982" lon="4.52644">
        <ele>255.603</ele>
        <time>2020-08-09T09:01:11Z</time>
      </trkpt>
      <trkpt lat="46.54978" lon="4.52653">
        <ele>254.603</ele>
        <time>2020-08-09T09:01:16Z</time>
      </trkpt>
      <trkpt lat="46.54974" lon="4.52662">
        <ele>253.603</ele>
        <time>2020-08-09T09:01:22Z</time>
      </trkpt>
      <trkpt lat="46.54971" lon="4.52671">
        <ele>255.603</ele>
        <time>2020-08-09T09:01:27Z</time>
      </trkpt>
      <trkpt lat="46.54968" lon="4.5268">
        <ele>256.603</ele>
        <time>2020-08-09T09:01:32Z</time>
      </trkpt>
      <trkpt lat="46.54965" lon="4.5269">
        <ele>256.603</ele>
        <time>2020-08-09T09:01:38Z</time>
      </trkpt>
      <trkpt lat="46.5496" lon="4.52697">
        <ele>256.603</ele>
        <time>2020-08-09T09:01:43Z</time>
      </trkpt>
      <trkpt lat="46.54957" lon="4.52707">
        <ele>254.603</ele>
        <time>2020-08-09T09:01:49Z</time>
      </trkpt>
      <trkpt lat="46.54953" lon="4.52714">
        <ele>253.603</ele>
        <time>2020-08-09T09:01:54Z</time>
      </trkpt>
      <trkpt lat="46.54949" lon="4.52722">
        <ele>256.603</ele>
        <time>2020-08-09T09:01:59Z</time>
      </trkpt>
      <trkpt lat="46.54944" lon="4.52729">
        <ele>256.603</ele>
        <time>2020-08-09T09:02:04Z</time>
      </trkpt>
      <trkpt lat="46.54937" lon="4.52735">
        <ele>256.603</ele>
        <time>2020-08-09T09:02:09Z</time>
      </trkpt>
      <trkpt lat="46.54932" lon="4.5274">
        <ele>256.603</ele>
        <time>2020-08-09T09:02:14Z</time>
      </trkpt>
      <trkpt lat="46.54925" lon="4.52746">
        <ele>255.603</ele>
        <time>2020-08-09T09:02:20Z</time>
      </trkpt>
      <trkpt lat="46.54919" lon="4.5275">
        <ele>257.603</ele>
        <time>2020-08-09T09:02:25Z</time>
      </trkpt>
      <trkpt lat="46.54912" lon="4.52755">
        <ele>256.603</ele>
        <time>2020-08-09T09:02:31Z</time>
      </trkpt>
      <trkpt lat="46.54905" lon="4.52761">
        <ele>253.603</ele>
        <time>2020-08-09T09:02:38Z</time>
      </trkpt>
      <trkpt lat="46.549" lon="4.52767">
        <ele>251.603</ele>
        <time>2020-08-09T09:02:43Z</time>
      </trkpt>
      <trkpt lat="46.54893" lon="4.52773">
        <ele>253.603</ele>
        <time>2020-08-09T09:02:48Z</time>
      </trkpt>
      <trkpt lat="46.54888" lon="4.52779">
        <ele>252.603</ele>
        <time>2020-08-09T09:02:54Z</time>
      </trkpt>
      <trkpt lat="46.54883" lon="4.52786">
        <ele>252.603</ele>
        <time>2020-08-09T09:03:00Z</time>
      </trkpt>
      <trkpt lat="46.54877" lon="4.5279">
        <ele>251.603</ele>
        <time>2020-08-09T09:03:05Z</time>
      </trkpt>
      <trkpt lat="46.54871" lon="4.52795">
        <ele>250.603</ele>
        <time>2020-08-09T09:03:10Z</time>
      </trkpt>
      <trkpt lat="46.54866" lon="4.52802">
        <ele>249.603</ele>
        <time>2020-08-09T09:03:15Z</time>
      </trkpt>
      <trkpt lat="46.54861" lon="4.52807">
        <ele>250.603</ele>
        <time>2020-08-09T09:03:20Z</time>
      </trkpt>
      <trkpt lat="46.54854" lon="4.52809">
        <ele>247.603</ele>
        <time>2020-08-09T09:03:33Z</time>
      </trkpt>
      <trkpt lat="46.54849" lon="4.52816">
        <ele>247.603</ele>
        <time>2020-08-09T09:03:38Z</time>
      </trkpt>
      <trkpt lat="46.54842" lon="4.52821">
        <ele>248.603</ele>
        <time>2020-08-09T09:03:44Z</time>
      </trkpt>
      <trkpt lat="46.54836" lon="4.52825">
        <ele>249.603</ele>
        <time>2020-08-09T09:03:49Z</time>
      </trkpt>
      <trkpt lat="46.54829" lon="4.52831">
        <ele>249.603</ele>
        <time>2020-08-09T09:03:55Z</time>
      </trkpt>
      <trkpt lat="46.54824" lon="4.52836">
        <ele>248.603</ele>
        <time>2020-08-09T09:04:00Z</time>
      </trkpt>
      <trkpt lat="46.54819" lon="4.52844">
        <ele>247.603</ele>
        <time>2020-08-09T09:04:06Z</time>
      </trkpt>
      <trkpt lat="46.54812" lon="4.52849">
        <ele>246.603</ele>
        <time>2020-08-09T09:04:12Z</time>
      </trkpt>
      <trkpt lat="46.54806" lon="4.52854">
        <ele>248.603</ele>
        <time>2020-08-09T09:04:18Z</time>
      </trkpt>
      <trkpt lat="46.548" lon="4.52861">
        <ele>249.603</ele>
        <time>2020-08-09T09:04:23Z</time>
      </trkpt>
      <trkpt lat="46.54793" lon="4.52865">
        <ele>247.603</ele>
        <time>2020-08-09T09:04:28Z</time>
      </trkpt>
      <trkpt lat="46.54786" lon="4.52871">
        <ele>247.603</ele>
        <time>2020-08-09T09:04:34Z</time>
      </trkpt>
      <trkpt lat="46.54779" lon="4.52877">
        <ele>246.603</ele>
        <time>2020-08-09T09:04:40Z</time>
      </trkpt>
      <trkpt lat="46.54773" lon="4.52882">
        <ele>242.603</ele>
        <time>2020-08-09T09:04:45Z</time>
      </trkpt>
      <trkpt lat="46.54765" lon="4.52883">
        <ele>242.603</ele>
        <time>2020-08-09T09:04:50Z</time>
      </trkpt>
      <trkpt lat="46.54759" lon="4.52889">
        <ele>240.603</ele>
        <time>2020-08-09T09:04:56Z</time>
      </trkpt>
      <trkpt lat="46.54753" lon="4.52896">
        <ele>241.603</ele>
        <time>2020-08-09T09:05:01Z</time>
      </trkpt>
      <trkpt lat="46.54745" lon="4.52899">
        <ele>240.603</ele>
        <time>2020-08-09T09:05:07Z</time>
      </trkpt>
      <trkpt lat="46.5474" lon="4.52905">
        <ele>240.603</ele>
        <time>2020-08-09T09:05:12Z</time>
      </trkpt>
      <trkpt lat="46.54734" lon="4.52911">
        <ele>239.603</ele>
        <time>2020-08-09T09:05:17Z</time>
      </trkpt>
      <trkpt lat="46.54728" lon="4.52916">
        <ele>239.603</ele>
        <time>2020-08-09T09:05:22Z</time>
      </trkpt>
      <trkpt lat="46.54721" lon="4.5292">
        <ele>240.603</ele>
        <time>2020-08-09T09:05:27Z</time>
      </trkpt>
      <trkpt lat="46.54715" lon="4.52926">
        <ele>238.603</ele>
        <time>2020-08-09T09:05:33Z</time>
      </trkpt>
      <trkpt lat="46.54709" lon="4.52931">
        <ele>238.603</ele>
        <time>2020-08-09T09:05:38Z</time>
      </trkpt>
      <trkpt lat="46.54701" lon="4.52936">
        <ele>238.603</ele>
        <time>2020-08-09T09:05:44Z</time>
      </trkpt>
      <trkpt lat="46.54695" lon="4.52941">
        <ele>237.603</ele>
        <time>2020-08-09T09:05:51Z</time>
      </trkpt>
      <trkpt lat="46.54689" lon="4.52947">
        <ele>236.603</ele>
        <time>2020-08-09T09:05:57Z</time>
      </trkpt>
      <trkpt lat="46.54683" lon="4.52952">
        <ele>236.603</ele>
        <time>2020-08-09T09:06:02Z</time>
      </trkpt>
      <trkpt lat="46.54676" lon="4.52955">
        <ele>236.603</ele>
        <time>2020-08-09T09:06:07Z</time>
      </trkpt>
      <trkpt lat="46.54669" lon="4.5296">
        <ele>235.602</ele>
        <time>2020-08-09T09:06:12Z</time>
      </trkpt>
      <trkpt lat="46.54662" lon="4.52965">
        <ele>237.602</ele>
        <time>2020-08-09T09:06:17Z</time>
      </trkpt>
      <trkpt lat="46.54654" lon="4.5297">
        <ele>237.602</ele>
        <time>2020-08-09T09:06:22Z</time>
      </trkpt>
      <trkpt lat="46.54649" lon="4.52977">
        <ele>238.602</ele>
        <time>2020-08-09T09:06:27Z</time>
      </trkpt>
      <trkpt lat="46.54643" lon="4.52984">
        <ele>238.602</ele>
        <time>2020-08-09T09:06:33Z</time>
      </trkpt>
      <trkpt lat="46.54637" lon="4.5299">
        <ele>238.602</ele>
        <time>2020-08-09T09:06:39Z</time>
      </trkpt>
      <trkpt lat="46.5463" lon="4.52996">
        <ele>237.602</ele>
        <time>2020-08-09T09:06:45Z</time>
      </trkpt>
      <trkpt lat="46.54623" lon="4.53">
        <ele>239.602</ele>
        <time>2020-08-09T09:06:50Z</time>
      </trkpt>
      <trkpt lat="46.54617" lon="4.53005">
        <ele>238.602</ele>
        <time>2020-08-09T09:06:55Z</time>
      </trkpt>
      <trkpt lat="46.5461" lon="4.53009">
        <ele>239.602</ele>
        <time>2020-08-09T09:07:00Z</time>
      </trkpt>
      <trkpt lat="46.54602" lon="4.53013">
        <ele>240.602</ele>
        <time>2020-08-09T09:07:06Z</time>
      </trkpt>
      <trkpt lat="46.54595" lon="4.53017">
        <ele>238.602</ele>
        <time>2020-08-09T09:07:12Z</time>
      </trkpt>
      <trkpt lat="46.54588" lon="4.53023">
        <ele>237.602</ele>
        <time>2020-08-09T09:07:18Z</time>
      </trkpt>
      <trkpt lat="46.54583" lon="4.53028">
        <ele>236.602</ele>
        <time>2020-08-09T09:07:24Z</time>
      </trkpt>
      <trkpt lat="46.54579" lon="4.53038">
        <ele>235.602</ele>
        <time>2020-08-09T09:07:29Z</time>
      </trkpt>
      <trkpt lat="46.54571" lon="4.53039">
        <ele>236.602</ele>
        <time>2020-08-09T09:07:34Z</time>
      </trkpt>
      <trkpt lat="46.54564" lon="4.53043">
        <ele>235.602</ele>
        <time>2020-08-09T09:07:39Z</time>
      </trkpt>
      <trkpt lat="46.54557" lon="4.53047">
        <ele>238.602</ele>
        <time>2020-08-09T09:07:45Z</time>
      </trkpt>
      <trkpt lat="46.5455" lon="4.53049">
        <ele>239.602</ele>
        <time>2020-08-09T09:07:50Z</time>
      </trkpt>
      <trkpt lat="46.54542" lon="4.53052">
        <ele>237.602</ele>
        <time>2020-08-09T09:07:55Z</time>
      </trkpt>
      <trkpt lat="46.54535" lon="4.53058">
        <ele>237.602</ele>
        <time>2020-08-09T09:08:02Z</time>
      </trkpt>
      <trkpt lat="46.5453" lon="4.53063">
        <ele>231.602</ele>
        <time>2020-08-09T09:08:08Z</time>
      </trkpt>
      <trkpt lat="46.54523" lon="4.53068">
        <ele>227.602</ele>
        <time>2020-08-09T09:08:14Z</time>
      </trkpt>
      <trkpt lat="46.54517" lon="4.53075">
        <ele>229.602</ele>
        <time>2020-08-09T09:08:19Z</time>
      </trkpt>
      <trkpt lat="46.54511" lon="4.53081">
        <ele>232.602</ele>
        <time>2020-08-09T09:08:24Z</time>
      </trkpt>
      <trkpt lat="46.54504" lon="4.53085">
        <ele>231.602</ele>
        <time>2020-08-09T09:08:30Z</time>
      </trkpt>
      <trkpt lat="46.54498" lon="4.53091">
        <ele>232.602</ele>
        <time>2020-08-09T09:08:36Z</time>
      </trkpt>
      <trkpt lat="46.54493" lon="4.53097">
        <ele>233.602</ele>
        <time>2020-08-09T09:08:41Z</time>
      </trkpt>
      <trkpt lat="46.54486" lon="4.53102">
        <ele>233.602</ele>
        <time>2020-08-09T09:08:47Z</time>
      </trkpt>
      <trkpt lat="46.5448" lon="4.53106">
        <ele>233.602</ele>
        <time>2020-08-09T09:08:52Z</time>
      </trkpt>
      <trkpt lat="46.54473" lon="4.5311">
        <ele>231.602</ele>
        <time>2020-08-09T09:08:58Z</time>
      </trkpt>
      <trkpt lat="46.54467" lon="4.53116">
        <ele>231.602</ele>
        <time>2020-08-09T09:09:03Z</time>
      </trkpt>
      <trkpt lat="46.54461" lon="4.5312">
        <ele>232.602</ele>
        <time>2020-08-09T09:09:08Z</time>
      </trkpt>
      <trkpt lat="46.54454" lon="4.53125">
        <ele>232.602</ele>
        <time>2020-08-09T09:09:14Z</time>
      </trkpt>
      <trkpt lat="46.54447" lon="4.53129">
        <ele>232.602</ele>
        <time>2020-08-09T09:09:20Z</time>
      </trkpt>
      <trkpt lat="46.5444" lon="4.53132">
        <ele>233.602</ele>
        <time>2020-08-09T09:09:25Z</time>
      </trkpt>
      <trkpt lat="46.54434" lon="4.53136">
        <ele>233.602</ele>
        <time>2020-08-09T09:09:30Z</time>
      </trkpt>
      <trkpt lat="46.54428" lon="4.53141">
        <ele>235.602</ele>
        <time>2020-08-09T09:09:35Z</time>
      </trkpt>
      <trkpt lat="46.54421" lon="4.53144">
        <ele>237.602</ele>
        <time>2020-08-09T09:09:40Z</time>
      </trkpt>
      <trkpt lat="46.54414" lon="4.53148">
        <ele>239.602</ele>
        <time>2020-08-09T09:09:45Z</time>
      </trkpt>
      <trkpt lat="46.54407" lon="4.5315">
        <ele>240.602</ele>
        <time>2020-08-09T09:09:50Z</time>
      </trkpt>
      <trkpt lat="46.544" lon="4.53155">
        <ele>242.602</ele>
        <time>2020-08-09T09:09:55Z</time>
      </trkpt>
      <trkpt lat="46.54393" lon="4.53159">
        <ele>242.602</ele>
        <time>2020-08-09T09:10:01Z</time>
      </trkpt>
      <trkpt lat="46.54387" lon="4.53164">
        <ele>243.602</ele>
        <time>2020-08-09T09:10:06Z</time>
      </trkpt>
      <trkpt lat="46.54381" lon="4.53169">
        <ele>240.602</ele>
        <time>2020-08-09T09:10:13Z</time>
      </trkpt>
      <trkpt lat="46.54375" lon="4.53174">
        <ele>240.602</ele>
        <time>2020-08-09T09:10:18Z</time>
      </trkpt>
      <trkpt lat="46.54369" lon="4.53179">
        <ele>240.602</ele>
        <time>2020-08-09T09:10:23Z</time>
      </trkpt>
      <trkpt lat="46.54362" lon="4.53185">
        <ele>238.602</ele>
        <time>2020-08-09T09:10:29Z</time>
      </trkpt>
      <trkpt lat="46.54356" lon="4.5319">
        <ele>238.602</ele>
        <time>2020-08-09T09:10:34Z</time>
      </trkpt>
      <trkpt lat="46.54351" lon="4.53196">
        <ele>236.602</ele>
        <time>2020-08-09T09:10:40Z</time>
      </trkpt>
      <trkpt lat="46.54344" lon="4.53199">
        <ele>236.602</ele>
        <time>2020-08-09T09:10:45Z</time>
      </trkpt>
      <trkpt lat="46.54338" lon="4.53204">
        <ele>237.602</ele>
        <time>2020-08-09T09:10:50Z</time>
      </trkpt>
      <trkpt lat="46.54331" lon="4.53209">
        <ele>237.602</ele>
        <time>2020-08-09T09:10:55Z</time>
      </trkpt>
      <trkpt lat="46.54325" lon="4.53214">
        <ele>238.602</ele>
        <time>2020-08-09T09:11:00Z</time>
      </trkpt>
      <trkpt lat="46.54318" lon="4.53219">
        <ele>239.602</ele>
        <time>2020-08-09T09:11:06Z</time>
      </trkpt>
      <trkpt lat="46.54311" lon="4.53224">
        <ele>238.602</ele>
        <time>2020-08-09T09:11:12Z</time>
      </trkpt>
      <trkpt lat="46.54305" lon="4.53228">
        <ele>238.602</ele>
        <time>2020-08-09T09:11:18Z</time>
      </trkpt>
      <trkpt lat="46.54298" lon="4.53233">
        <ele>237.602</ele>
        <time>2020-08-09T09:11:24Z</time>
      </trkpt>
      <trkpt lat="46.54292" lon="4.53236">
        <ele>237.602</ele>
        <time>2020-08-09T09:11:29Z</time>
      </trkpt>
      <trkpt lat="46.54287" lon="4.53243">
        <ele>237.602</ele>
        <time>2020-08-09T09:11:34Z</time>
      </trkpt>
      <trkpt lat="46.54281" lon="4.53249">
        <ele>236.602</ele>
        <time>2020-08-09T09:11:39Z</time>
      </trkpt>
      <trkpt lat="46.54275" lon="4.53255">
        <ele>235.602</ele>
        <time>2020-08-09T09:11:45Z</time>
      </trkpt>
      <trkpt lat="46.5427" lon="4.53263">
        <ele>236.602</ele>
        <time>2020-08-09T09:11:50Z</time>
      </trkpt>
      <trkpt lat="46.54266" lon="4.5327">
        <ele>234.602</ele>
        <time>2020-08-09T09:11:56Z</time>
      </trkpt>
      <trkpt lat="46.54261" lon="4.53277">
        <ele>233.602</ele>
        <time>2020-08-09T09:12:02Z</time>
      </trkpt>
      <trkpt lat="46.54255" lon="4.53282">
        <ele>233.602</ele>
        <time>2020-08-09T09:12:07Z</time>
      </trkpt>
      <trkpt lat="46.54249" lon="4.5329">
        <ele>232.602</ele>
        <time>2020-08-09T09:12:13Z</time>
      </trkpt>
      <trkpt lat="46.54243" lon="4.53295">
        <ele>232.602</ele>
        <time>2020-08-09T09:12:19Z</time>
      </trkpt>
      <trkpt lat="46.54237" lon="4.53299">
        <ele>232.602</ele>
        <time>2020-08-09T09:12:24Z</time>
      </trkpt>
      <trkpt lat="46.54231" lon="4.53305">
        <ele>232.602</ele>
        <time>2020-08-09T09:12:30Z</time>
      </trkpt>
      <trkpt lat="46.54225" lon="4.53308">
        <ele>233.602</ele>
        <time>2020-08-09T09:12:35Z</time>
      </trkpt>
      <trkpt lat="46.54219" lon="4.53314">
        <ele>233.602</ele>
        <time>2020-08-09T09:12:41Z</time>
      </trkpt>
      <trkpt lat="46.54214" lon="4.5332">
        <ele>233.602</ele>
        <time>2020-08-09T09:12:47Z</time>
      </trkpt>
      <trkpt lat="46.54207" lon="4.53324">
        <ele>233.601</ele>
        <time>2020-08-09T09:12:52Z</time>
      </trkpt>
      <trkpt lat="46.54202" lon="4.5333">
        <ele>232.601</ele>
        <time>2020-08-09T09:12:57Z</time>
      </trkpt>
      <trkpt lat="46.54196" lon="4.53334">
        <ele>232.601</ele>
        <time>2020-08-09T09:13:03Z</time>
      </trkpt>
      <trkpt lat="46.54191" lon="4.53341">
        <ele>233.601</ele>
        <time>2020-08-09T09:13:08Z</time>
      </trkpt>
      <trkpt lat="46.54185" lon="4.53345">
        <ele>232.601</ele>
        <time>2020-08-09T09:13:13Z</time>
      </trkpt>
      <trkpt lat="46.54179" lon="4.53351">
        <ele>233.601</ele>
        <time>2020-08-09T09:13:18Z</time>
      </trkpt>
      <trkpt lat="46.54173" lon="4.53357">
        <ele>234.601</ele>
        <time>2020-08-09T09:13:23Z</time>
      </trkpt>
      <trkpt lat="46.54168" lon="4.53363">
        <ele>233.601</ele>
        <time>2020-08-09T09:13:28Z</time>
      </trkpt>
      <trkpt lat="46.54164" lon="4.5337">
        <ele>234.601</ele>
        <time>2020-08-09T09:13:33Z</time>
      </trkpt>
      <trkpt lat="46.54158" lon="4.53377">
        <ele>233.601</ele>
        <time>2020-08-09T09:13:39Z</time>
      </trkpt>
      <trkpt lat="46.54153" lon="4.53385">
        <ele>235.601</ele>
        <time>2020-08-09T09:13:44Z</time>
      </trkpt>
      <trkpt lat="46.54148" lon="4.53391">
        <ele>235.601</ele>
        <time>2020-08-09T09:13:49Z</time>
      </trkpt>
      <trkpt lat="46.54143" lon="4.53398">
        <ele>236.601</ele>
        <time>2020-08-09T09:13:55Z</time>
      </trkpt>
      <trkpt lat="46.54138" lon="4.53405">
        <ele>237.601</ele>
        <time>2020-08-09T09:14:00Z</time>
      </trkpt>
      <trkpt lat="46.54134" lon="4.53412">
        <ele>233.601</ele>
        <time>2020-08-09T09:14:06Z</time>
      </trkpt>
      <trkpt lat="46.54129" lon="4.53419">
        <ele>231.601</ele>
        <time>2020-08-09T09:14:11Z</time>
      </trkpt>
      <trkpt lat="46.54124" lon="4.53427">
        <ele>232.601</ele>
        <time>2020-08-09T09:14:16Z</time>
      </trkpt>
      <trkpt lat="46.54118" lon="4.53434">
        <ele>234.601</ele>
        <time>2020-08-09T09:14:22Z</time>
      </trkpt>
      <trkpt lat="46.54113" lon="4.53442">
        <ele>233.601</ele>
        <time>2020-08-09T09:14:28Z</time>
      </trkpt>
      <trkpt lat="46.54107" lon="4.53449">
        <ele>233.601</ele>
        <time>2020-08-09T09:14:35Z</time>
      </trkpt>
      <trkpt lat="46.54102" lon="4.53455">
        <ele>233.601</ele>
        <time>2020-08-09T09:14:40Z</time>
      </trkpt>
      <trkpt lat="46.54095" lon="4.53456">
        <ele>232.601</ele>
        <time>2020-08-09T09:14:45Z</time>
      </trkpt>
      <trkpt lat="46.54087" lon="4.53457">
        <ele>234.601</ele>
        <time>2020-08-09T09:14:51Z</time>
      </trkpt>
      <trkpt lat="46.54081" lon="4.53457">
        <ele>234.601</ele>
        <time>2020-08-09T09:14:56Z</time>
      </trkpt>
      <trkpt lat="46.54074" lon="4.53456">
        <ele>234.601</ele>
        <time>2020-08-09T09:15:02Z</time>
      </trkpt>
      <trkpt lat="46.54067" lon="4.53451">
        <ele>232.601</ele>
        <time>2020-08-09T09:15:08Z</time>
      </trkpt>
      <trkpt lat="46.5406" lon="4.53446">
        <ele>235.601</ele>
        <time>2020-08-09T09:15:13Z</time>
      </trkpt>
      <trkpt lat="46.54053" lon="4.53448">
        <ele>239.601</ele>
        <time>2020-08-09T09:15:20Z</time>
      </trkpt>
      <trkpt lat="46.54046" lon="4.53446">
        <ele>237.601</ele>
        <time>2020-08-09T09:15:26Z</time>
      </trkpt>
      <trkpt lat="46.54039" lon="4.53442">
        <ele>237.601</ele>
        <time>2020-08-09T09:15:31Z</time>
      </trkpt>
      <trkpt lat="46.54032" lon="4.5344">
        <ele>239.601</ele>
        <time>2020-08-09T09:15:37Z</time>
      </trkpt>
      <trkpt lat="46.54026" lon="4.53436">
        <ele>239.601</ele>
        <time>2020-08-09T09:15:43Z</time>
      </trkpt>
      <trkpt lat="46.54019" lon="4.5344">
        <ele>239.601</ele>
        <time>2020-08-09T09:15:49Z</time>
      </trkpt>
      <trkpt lat="46.54012" lon="4.53441">
        <ele>238.601</ele>
        <time>2020-08-09T09:15:55Z</time>
      </trkpt>
      <trkpt lat="46.54004" lon="4.53442">
        <ele>239.601</ele>
        <time>2020-08-09T09:16:06Z</time>
      </trkpt>
      <trkpt lat="46.53997" lon="4.53441">
        <ele>239.601</ele>
        <time>2020-08-09T09:16:11Z</time>
      </trkpt>
      <trkpt lat="46.5399" lon="4.5344">
        <ele>242.601</ele>
        <time>2020-08-09T09:16:16Z</time>
      </trkpt>
      <trkpt lat="46.53983" lon="4.5344">
        <ele>241.601</ele>
        <time>2020-08-09T09:16:22Z</time>
      </trkpt>
      <trkpt lat="46.53977" lon="4.53441">
        <ele>240.601</ele>
        <time>2020-08-09T09:16:27Z</time>
      </trkpt>
      <trkpt lat="46.53969" lon="4.53438">
        <ele>240.601</ele>
        <time>2020-08-09T09:16:33Z</time>
      </trkpt>
      <trkpt lat="46.53962" lon="4.53435">
        <ele>240.601</ele>
        <time>2020-08-09T09:16:38Z</time>
      </trkpt>
      <trkpt lat="46.53955" lon="4.53433">
        <ele>238.601</ele>
        <time>2020-08-09T09:16:44Z</time>
      </trkpt>
      <trkpt lat="46.53948" lon="4.53429">
        <ele>238.601</ele>
        <time>2020-08-09T09:16:49Z</time>
      </trkpt>
      <trkpt lat="46.53942" lon="4.53425">
        <ele>238.601</ele>
        <time>2020-08-09T09:16:54Z</time>
      </trkpt>
      <trkpt lat="46.53934" lon="4.53423">
        <ele>237.601</ele>
        <time>2020-08-09T09:17:00Z</time>
      </trkpt>
      <trkpt lat="46.53928" lon="4.53417">
        <ele>239.601</ele>
        <time>2020-08-09T09:17:05Z</time>
      </trkpt>
      <trkpt lat="46.53921" lon="4.53412">
        <ele>239.601</ele>
        <time>2020-08-09T09:17:10Z</time>
      </trkpt>
      <trkpt lat="46.53914" lon="4.53407">
        <ele>239.601</ele>
        <time>2020-08-09T09:17:15Z</time>
      </trkpt>
      <trkpt lat="46.53905" lon="4.53405">
        <ele>238.601</ele>
        <time>2020-08-09T09:17:22Z</time>
      </trkpt>
      <trkpt lat="46.53899" lon="4.53404">
        <ele>238.601</ele>
        <time>2020-08-09T09:17:28Z</time>
      </trkpt>
      <trkpt lat="46.53892" lon="4.534">
        <ele>239.601</ele>
        <time>2020-08-09T09:17:33Z</time>
      </trkpt>
      <trkpt lat="46.53884" lon="4.53397">
        <ele>238.601</ele>
        <time>2020-08-09T09:17:38Z</time>
      </trkpt>
      <trkpt lat="46.53876" lon="4.53394">
        <ele>238.601</ele>
        <time>2020-08-09T09:17:44Z</time>
      </trkpt>
      <trkpt lat="46.53869" lon="4.5339">
        <ele>240.601</ele>
        <time>2020-08-09T09:17:49Z</time>
      </trkpt>
      <trkpt lat="46.53861" lon="4.53385">
        <ele>241.601</ele>
        <time>2020-08-09T09:17:55Z</time>
      </trkpt>
      <trkpt lat="46.53854" lon="4.53383">
        <ele>241.601</ele>
        <time>2020-08-09T09:18:01Z</time>
      </trkpt>
      <trkpt lat="46.53847" lon="4.5338">
        <ele>240.601</ele>
        <time>2020-08-09T09:18:06Z</time>
      </trkpt>
      <trkpt lat="46.53841" lon="4.53375">
        <ele>242.601</ele>
        <time>2020-08-09T09:18:11Z</time>
      </trkpt>
      <trkpt lat="46.53833" lon="4.53371">
        <ele>241.601</ele>
        <time>2020-08-09T09:18:17Z</time>
      </trkpt>
      <trkpt lat="46.53827" lon="4.53367">
        <ele>242.6</ele>
        <time>2020-08-09T09:18:22Z</time>
      </trkpt>
      <trkpt lat="46.53821" lon="4.53362">
        <ele>241.6</ele>
        <time>2020-08-09T09:18:27Z</time>
      </trkpt>
      <trkpt lat="46.53815" lon="4.53358">
        <ele>241.6</ele>
        <time>2020-08-09T09:18:36Z</time>
      </trkpt>
      <trkpt lat="46.53809" lon="4.53351">
        <ele>243.6</ele>
        <time>2020-08-09T09:18:42Z</time>
      </trkpt>
      <trkpt lat="46.53802" lon="4.53348">
        <ele>241.6</ele>
        <time>2020-08-09T09:18:49Z</time>
      </trkpt>
      <trkpt lat="46.53796" lon="4.53346">
        <ele>244.6</ele>
        <time>2020-08-09T09:19:05Z</time>
      </trkpt>
      <trkpt lat="46.53796" lon="4.53356">
        <ele>244.6</ele>
        <time>2020-08-09T09:19:13Z</time>
      </trkpt>
      <trkpt lat="46.53799" lon="4.53365">
        <ele>247.6</ele>
        <time>2020-08-09T09:19:22Z</time>
      </trkpt>
      <trkpt lat="46.53801" lon="4.53375">
        <ele>246.6</ele>
        <time>2020-08-09T09:20:14Z</time>
      </trkpt>
      <trkpt lat="46.53806" lon="4.5338">
        <ele>245.6</ele>
        <time>2020-08-09T09:21:24Z</time>
      </trkpt>
      <trkpt lat="46.538" lon="4.53374">
        <ele>247.6</ele>
        <time>2020-08-09T09:21:46Z</time>
      </trkpt>
      <trkpt lat="46.53793" lon="4.53371">
        <ele>247.6</ele>
        <time>2020-08-09T09:21:53Z</time>
      </trkpt>
      <trkpt lat="46.53787" lon="4.53375">
        <ele>241.6</ele>
        <time>2020-08-09T09:22:22Z</time>
      </trkpt>
      <trkpt lat="46.53781" lon="4.53372">
        <ele>239.6</ele>
        <time>2020-08-09T09:22:29Z</time>
      </trkpt>
      <trkpt lat="46.53787" lon="4.53365">
        <ele>236.6</ele>
        <time>2020-08-09T09:23:25Z</time>
      </trkpt>
      <trkpt lat="46.53783" lon="4.53378">
        <ele>239.6</ele>
        <time>2020-08-09T09:25:50Z</time>
      </trkpt>
    </trkseg>
  </trk>
</gpx>